<?xml version="1.0" encoding="UTF-8" standalone="no" ?>
<gpx xmlns="http://www.topografix.com/GPX/1/1" xmlns:xsi="http://www.w3.org/2001/XMLSchema-instance" xsi:schemaLocation="http://www.topografix.com/GPX/1/1 http://www.topografix.com/GPX/1/1/gpx.xsd" version="1.1" creator="VisuGPX - https://www.visugpx.com">
  <metadata>
    <name>Islande piste F-225</name>
    <desc><![CDATA[Islande piste F-225]]></desc>
  </metadata>
  <trk>
    <name><![CDATA[2015-07-08 18:35:13]]></name>
    <trkseg>
      <trkpt lat="63.99471" lon="-19.06007">
        <ele>592.01</ele>
        <time>2015-07-08T15:58:34Z</time>
      </trkpt>
      <trkpt lat="63.99471" lon="-19.06007">
        <ele>592.01</ele>
        <time>2015-07-08T15:58:35Z</time>
      </trkpt>
      <trkpt lat="63.99468" lon="-19.06003">
        <ele>591.83</ele>
        <time>2015-07-08T15:59:03Z</time>
      </trkpt>
      <trkpt lat="63.99474" lon="-19.06006">
        <ele>591.75</ele>
        <time>2015-07-08T15:59:23Z</time>
      </trkpt>
      <trkpt lat="63.99473" lon="-19.05996">
        <ele>591.94</ele>
        <time>2015-07-08T15:59:34Z</time>
      </trkpt>
      <trkpt lat="63.99476" lon="-19.05992">
        <ele>591.98</ele>
        <time>2015-07-08T15:59:37Z</time>
      </trkpt>
      <trkpt lat="63.99508" lon="-19.05968">
        <ele>591.94</ele>
        <time>2015-07-08T15:59:52Z</time>
      </trkpt>
      <trkpt lat="63.99531" lon="-19.05953">
        <ele>591.56</ele>
        <time>2015-07-08T16:00:04Z</time>
      </trkpt>
      <trkpt lat="63.99562" lon="-19.05916">
        <ele>591.04</ele>
        <time>2015-07-08T16:00:17Z</time>
      </trkpt>
      <trkpt lat="63.9961" lon="-19.05818">
        <ele>591.42</ele>
        <time>2015-07-08T16:00:32Z</time>
      </trkpt>
      <trkpt lat="63.99634" lon="-19.05766">
        <ele>591.64</ele>
        <time>2015-07-08T16:00:43Z</time>
      </trkpt>
      <trkpt lat="63.99679" lon="-19.05645">
        <ele>592.42</ele>
        <time>2015-07-08T16:00:55Z</time>
      </trkpt>
      <trkpt lat="63.99703" lon="-19.0558">
        <ele>592.74</ele>
        <time>2015-07-08T16:01:01Z</time>
      </trkpt>
      <trkpt lat="63.99727" lon="-19.05477">
        <ele>593.21</ele>
        <time>2015-07-08T16:01:10Z</time>
      </trkpt>
      <trkpt lat="63.99748" lon="-19.05373">
        <ele>593.98</ele>
        <time>2015-07-08T16:01:24Z</time>
      </trkpt>
      <trkpt lat="63.9978" lon="-19.05223">
        <ele>594.31</ele>
        <time>2015-07-08T16:01:39Z</time>
      </trkpt>
      <trkpt lat="63.99789" lon="-19.05189">
        <ele>593.55</ele>
        <time>2015-07-08T16:01:42Z</time>
      </trkpt>
      <trkpt lat="63.99809" lon="-19.05142">
        <ele>592.29</ele>
        <time>2015-07-08T16:01:47Z</time>
      </trkpt>
      <trkpt lat="63.99861" lon="-19.05094">
        <ele>591.04</ele>
        <time>2015-07-08T16:01:57Z</time>
      </trkpt>
      <trkpt lat="63.999" lon="-19.051">
        <ele>591.72</ele>
        <time>2015-07-08T16:02:03Z</time>
      </trkpt>
      <trkpt lat="63.99934" lon="-19.05118">
        <ele>594.71</ele>
        <time>2015-07-08T16:02:09Z</time>
      </trkpt>
      <trkpt lat="64.0001" lon="-19.05077">
        <ele>598.14</ele>
        <time>2015-07-08T16:02:22Z</time>
      </trkpt>
      <trkpt lat="64.00097" lon="-19.04978">
        <ele>599.46</ele>
        <time>2015-07-08T16:02:38Z</time>
      </trkpt>
      <trkpt lat="64.00118" lon="-19.0495">
        <ele>599.49</ele>
        <time>2015-07-08T16:02:43Z</time>
      </trkpt>
      <trkpt lat="64.00133" lon="-19.04902">
        <ele>599.01</ele>
        <time>2015-07-08T16:02:49Z</time>
      </trkpt>
      <trkpt lat="64.00148" lon="-19.04811">
        <ele>598.73</ele>
        <time>2015-07-08T16:02:58Z</time>
      </trkpt>
      <trkpt lat="64.00185" lon="-19.04592">
        <ele>596.53</ele>
        <time>2015-07-08T16:03:13Z</time>
      </trkpt>
      <trkpt lat="64.00192" lon="-19.0455">
        <ele>595</ele>
        <time>2015-07-08T16:03:21Z</time>
      </trkpt>
      <trkpt lat="64.00201" lon="-19.04497">
        <ele>594.71</ele>
        <time>2015-07-08T16:03:33Z</time>
      </trkpt>
      <trkpt lat="64.00212" lon="-19.04437">
        <ele>595.39</ele>
        <time>2015-07-08T16:03:43Z</time>
      </trkpt>
      <trkpt lat="64.00222" lon="-19.04351">
        <ele>592.31</ele>
        <time>2015-07-08T16:03:51Z</time>
      </trkpt>
      <trkpt lat="64.00224" lon="-19.04302">
        <ele>589.16</ele>
        <time>2015-07-08T16:03:58Z</time>
      </trkpt>
      <trkpt lat="64.00238" lon="-19.0422">
        <ele>587.64</ele>
        <time>2015-07-08T16:04:07Z</time>
      </trkpt>
      <trkpt lat="64.00307" lon="-19.04027">
        <ele>587.36</ele>
        <time>2015-07-08T16:04:19Z</time>
      </trkpt>
      <trkpt lat="64.004" lon="-19.03803">
        <ele>587.25</ele>
        <time>2015-07-08T16:04:32Z</time>
      </trkpt>
      <trkpt lat="64.00469" lon="-19.03642">
        <ele>587.1</ele>
        <time>2015-07-08T16:04:44Z</time>
      </trkpt>
      <trkpt lat="64.0048" lon="-19.03626">
        <ele>585.93</ele>
        <time>2015-07-08T16:04:52Z</time>
      </trkpt>
      <trkpt lat="64.00481" lon="-19.03623">
        <ele>585.96</ele>
        <time>2015-07-08T16:05:32Z</time>
      </trkpt>
      <trkpt lat="64.00481" lon="-19.03623">
        <ele>585.91</ele>
        <time>2015-07-08T16:05:33Z</time>
      </trkpt>
      <trkpt lat="64.00489" lon="-19.03622">
        <ele>585.77</ele>
        <time>2015-07-08T16:05:37Z</time>
      </trkpt>
      <trkpt lat="64.00523" lon="-19.03632">
        <ele>586.04</ele>
        <time>2015-07-08T16:05:49Z</time>
      </trkpt>
      <trkpt lat="64.00551" lon="-19.03648">
        <ele>588.16</ele>
        <time>2015-07-08T16:05:56Z</time>
      </trkpt>
      <trkpt lat="64.00566" lon="-19.03681">
        <ele>589.93</ele>
        <time>2015-07-08T16:06:01Z</time>
      </trkpt>
      <trkpt lat="64.0057" lon="-19.037">
        <ele>589.64</ele>
        <time>2015-07-08T16:06:11Z</time>
      </trkpt>
      <trkpt lat="64.00572" lon="-19.03714">
        <ele>589.78</ele>
        <time>2015-07-08T16:06:15Z</time>
      </trkpt>
      <trkpt lat="64.00588" lon="-19.03752">
        <ele>590.25</ele>
        <time>2015-07-08T16:06:24Z</time>
      </trkpt>
      <trkpt lat="64.00612" lon="-19.03858">
        <ele>592.01</ele>
        <time>2015-07-08T16:06:33Z</time>
      </trkpt>
      <trkpt lat="64.00636" lon="-19.03918">
        <ele>593.18</ele>
        <time>2015-07-08T16:06:38Z</time>
      </trkpt>
      <trkpt lat="64.00681" lon="-19.04068">
        <ele>594.07</ele>
        <time>2015-07-08T16:06:49Z</time>
      </trkpt>
      <trkpt lat="64.00702" lon="-19.04113">
        <ele>594.29</ele>
        <time>2015-07-08T16:06:53Z</time>
      </trkpt>
      <trkpt lat="64.00769" lon="-19.04193">
        <ele>595.97</ele>
        <time>2015-07-08T16:07:02Z</time>
      </trkpt>
      <trkpt lat="64.00821" lon="-19.04203">
        <ele>596.5</ele>
        <time>2015-07-08T16:07:08Z</time>
      </trkpt>
      <trkpt lat="64.00845" lon="-19.04217">
        <ele>596.56</ele>
        <time>2015-07-08T16:07:11Z</time>
      </trkpt>
      <trkpt lat="64.00882" lon="-19.04212">
        <ele>596.37</ele>
        <time>2015-07-08T16:07:16Z</time>
      </trkpt>
      <trkpt lat="64.00898" lon="-19.04201">
        <ele>596.24</ele>
        <time>2015-07-08T16:07:18Z</time>
      </trkpt>
      <trkpt lat="64.00969" lon="-19.04199">
        <ele>597.22</ele>
        <time>2015-07-08T16:07:27Z</time>
      </trkpt>
      <trkpt lat="64.00987" lon="-19.04204">
        <ele>597.04</ele>
        <time>2015-07-08T16:07:30Z</time>
      </trkpt>
      <trkpt lat="64.01033" lon="-19.04168">
        <ele>596.24</ele>
        <time>2015-07-08T16:07:38Z</time>
      </trkpt>
      <trkpt lat="64.01065" lon="-19.04148">
        <ele>596.37</ele>
        <time>2015-07-08T16:07:44Z</time>
      </trkpt>
      <trkpt lat="64.01102" lon="-19.0413">
        <ele>596.57</ele>
        <time>2015-07-08T16:07:51Z</time>
      </trkpt>
      <trkpt lat="64.01137" lon="-19.04129">
        <ele>597.63</ele>
        <time>2015-07-08T16:08:01Z</time>
      </trkpt>
      <trkpt lat="64.01192" lon="-19.0413">
        <ele>598.96</ele>
        <time>2015-07-08T16:08:11Z</time>
      </trkpt>
      <trkpt lat="64.01233" lon="-19.04184">
        <ele>599.9</ele>
        <time>2015-07-08T16:08:19Z</time>
      </trkpt>
      <trkpt lat="64.01252" lon="-19.0423">
        <ele>601.82</ele>
        <time>2015-07-08T16:08:24Z</time>
      </trkpt>
      <trkpt lat="64.01269" lon="-19.04244">
        <ele>603.07</ele>
        <time>2015-07-08T16:08:28Z</time>
      </trkpt>
      <trkpt lat="64.0128" lon="-19.04244">
        <ele>603.22</ele>
        <time>2015-07-08T16:08:30Z</time>
      </trkpt>
      <trkpt lat="64.01301" lon="-19.04253">
        <ele>601.91</ele>
        <time>2015-07-08T16:08:34Z</time>
      </trkpt>
      <trkpt lat="64.01323" lon="-19.04276">
        <ele>598.06</ele>
        <time>2015-07-08T16:08:41Z</time>
      </trkpt>
      <trkpt lat="64.01338" lon="-19.04284">
        <ele>596.39</ele>
        <time>2015-07-08T16:08:46Z</time>
      </trkpt>
      <trkpt lat="64.01351" lon="-19.04301">
        <ele>595.72</ele>
        <time>2015-07-08T16:08:49Z</time>
      </trkpt>
      <trkpt lat="64.01372" lon="-19.0432">
        <ele>595.31</ele>
        <time>2015-07-08T16:08:53Z</time>
      </trkpt>
      <trkpt lat="64.01391" lon="-19.04326">
        <ele>595.68</ele>
        <time>2015-07-08T16:08:56Z</time>
      </trkpt>
      <trkpt lat="64.01426" lon="-19.04399">
        <ele>599.31</ele>
        <time>2015-07-08T16:09:04Z</time>
      </trkpt>
      <trkpt lat="64.01426" lon="-19.04452">
        <ele>602.46</ele>
        <time>2015-07-08T16:09:08Z</time>
      </trkpt>
      <trkpt lat="64.01418" lon="-19.04493">
        <ele>604.93</ele>
        <time>2015-07-08T16:09:11Z</time>
      </trkpt>
      <trkpt lat="64.01404" lon="-19.04525">
        <ele>608.45</ele>
        <time>2015-07-08T16:09:14Z</time>
      </trkpt>
      <trkpt lat="64.01392" lon="-19.04578">
        <ele>614.27</ele>
        <time>2015-07-08T16:09:20Z</time>
      </trkpt>
      <trkpt lat="64.01409" lon="-19.04587">
        <ele>617.67</ele>
        <time>2015-07-08T16:09:25Z</time>
      </trkpt>
      <trkpt lat="64.01468" lon="-19.04588">
        <ele>615.21</ele>
        <time>2015-07-08T16:09:39Z</time>
      </trkpt>
      <trkpt lat="64.01518" lon="-19.04613">
        <ele>611.92</ele>
        <time>2015-07-08T16:09:46Z</time>
      </trkpt>
      <trkpt lat="64.01558" lon="-19.04654">
        <ele>608.91</ele>
        <time>2015-07-08T16:09:51Z</time>
      </trkpt>
      <trkpt lat="64.01601" lon="-19.04686">
        <ele>605.45</ele>
        <time>2015-07-08T16:09:56Z</time>
      </trkpt>
      <trkpt lat="64.01643" lon="-19.04692">
        <ele>602.07</ele>
        <time>2015-07-08T16:10:01Z</time>
      </trkpt>
      <trkpt lat="64.01658" lon="-19.0469">
        <ele>600.34</ele>
        <time>2015-07-08T16:10:03Z</time>
      </trkpt>
      <trkpt lat="64.0168" lon="-19.0468">
        <ele>597.14</ele>
        <time>2015-07-08T16:10:06Z</time>
      </trkpt>
      <trkpt lat="64.01696" lon="-19.0467">
        <ele>595.78</ele>
        <time>2015-07-08T16:10:08Z</time>
      </trkpt>
      <trkpt lat="64.01734" lon="-19.0463">
        <ele>591.97</ele>
        <time>2015-07-08T16:10:13Z</time>
      </trkpt>
      <trkpt lat="64.0178" lon="-19.04579">
        <ele>588.69</ele>
        <time>2015-07-08T16:10:19Z</time>
      </trkpt>
      <trkpt lat="64.01893" lon="-19.04438">
        <ele>585.68</ele>
        <time>2015-07-08T16:10:34Z</time>
      </trkpt>
      <trkpt lat="64.02013" lon="-19.04246">
        <ele>584.99</ele>
        <time>2015-07-08T16:10:50Z</time>
      </trkpt>
      <trkpt lat="64.02091" lon="-19.04103">
        <ele>585.4</ele>
        <time>2015-07-08T16:11:01Z</time>
      </trkpt>
      <trkpt lat="64.02103" lon="-19.04075">
        <ele>585.49</ele>
        <time>2015-07-08T16:11:03Z</time>
      </trkpt>
      <trkpt lat="64.02119" lon="-19.03985">
        <ele>585.33</ele>
        <time>2015-07-08T16:11:08Z</time>
      </trkpt>
      <trkpt lat="64.02121" lon="-19.03949">
        <ele>585.14</ele>
        <time>2015-07-08T16:11:10Z</time>
      </trkpt>
      <trkpt lat="64.0213" lon="-19.03887">
        <ele>584.73</ele>
        <time>2015-07-08T16:11:14Z</time>
      </trkpt>
      <trkpt lat="64.02139" lon="-19.03742">
        <ele>583.97</ele>
        <time>2015-07-08T16:11:23Z</time>
      </trkpt>
      <trkpt lat="64.02151" lon="-19.03678">
        <ele>583.64</ele>
        <time>2015-07-08T16:11:28Z</time>
      </trkpt>
      <trkpt lat="64.02158" lon="-19.03655">
        <ele>583.83</ele>
        <time>2015-07-08T16:11:30Z</time>
      </trkpt>
      <trkpt lat="64.02181" lon="-19.03623">
        <ele>584.44</ele>
        <time>2015-07-08T16:11:34Z</time>
      </trkpt>
      <trkpt lat="64.02194" lon="-19.03616">
        <ele>585.06</ele>
        <time>2015-07-08T16:11:36Z</time>
      </trkpt>
      <trkpt lat="64.02256" lon="-19.03636">
        <ele>587.54</ele>
        <time>2015-07-08T16:11:48Z</time>
      </trkpt>
      <trkpt lat="64.02309" lon="-19.03635">
        <ele>584.33</ele>
        <time>2015-07-08T16:11:55Z</time>
      </trkpt>
      <trkpt lat="64.02354" lon="-19.03593">
        <ele>581</ele>
        <time>2015-07-08T16:12:01Z</time>
      </trkpt>
      <trkpt lat="64.02454" lon="-19.03444">
        <ele>578.61</ele>
        <time>2015-07-08T16:12:16Z</time>
      </trkpt>
      <trkpt lat="64.02482" lon="-19.03416">
        <ele>578.86</ele>
        <time>2015-07-08T16:12:20Z</time>
      </trkpt>
      <trkpt lat="64.02519" lon="-19.0336">
        <ele>579.03</ele>
        <time>2015-07-08T16:12:26Z</time>
      </trkpt>
      <trkpt lat="64.02553" lon="-19.03354">
        <ele>579.2</ele>
        <time>2015-07-08T16:12:31Z</time>
      </trkpt>
      <trkpt lat="64.02639" lon="-19.03438">
        <ele>580.51</ele>
        <time>2015-07-08T16:12:44Z</time>
      </trkpt>
      <trkpt lat="64.02714" lon="-19.03508">
        <ele>581.4</ele>
        <time>2015-07-08T16:12:56Z</time>
      </trkpt>
      <trkpt lat="64.02733" lon="-19.03536">
        <ele>582.39</ele>
        <time>2015-07-08T16:13:00Z</time>
      </trkpt>
      <trkpt lat="64.0274" lon="-19.03553">
        <ele>582.71</ele>
        <time>2015-07-08T16:13:02Z</time>
      </trkpt>
      <trkpt lat="64.02749" lon="-19.03591">
        <ele>582.59</ele>
        <time>2015-07-08T16:13:05Z</time>
      </trkpt>
      <trkpt lat="64.02791" lon="-19.03656">
        <ele>580.21</ele>
        <time>2015-07-08T16:13:13Z</time>
      </trkpt>
      <trkpt lat="64.0283" lon="-19.0366">
        <ele>580.24</ele>
        <time>2015-07-08T16:13:19Z</time>
      </trkpt>
      <trkpt lat="64.02861" lon="-19.03638">
        <ele>580.81</ele>
        <time>2015-07-08T16:13:24Z</time>
      </trkpt>
      <trkpt lat="64.02917" lon="-19.03619">
        <ele>580.57</ele>
        <time>2015-07-08T16:13:32Z</time>
      </trkpt>
      <trkpt lat="64.02943" lon="-19.03636">
        <ele>580.3</ele>
        <time>2015-07-08T16:13:36Z</time>
      </trkpt>
      <trkpt lat="64.03022" lon="-19.03729">
        <ele>579.8</ele>
        <time>2015-07-08T16:13:47Z</time>
      </trkpt>
      <trkpt lat="64.03121" lon="-19.0387">
        <ele>581.02</ele>
        <time>2015-07-08T16:14:01Z</time>
      </trkpt>
      <trkpt lat="64.03244" lon="-19.04023">
        <ele>580.05</ele>
        <time>2015-07-08T16:14:18Z</time>
      </trkpt>
      <trkpt lat="64.03283" lon="-19.04058">
        <ele>579.5</ele>
        <time>2015-07-08T16:14:24Z</time>
      </trkpt>
      <trkpt lat="64.03322" lon="-19.04022">
        <ele>578.54</ele>
        <time>2015-07-08T16:14:33Z</time>
      </trkpt>
      <trkpt lat="64.03357" lon="-19.03829">
        <ele>577.47</ele>
        <time>2015-07-08T16:14:47Z</time>
      </trkpt>
      <trkpt lat="64.03383" lon="-19.03644">
        <ele>577.05</ele>
        <time>2015-07-08T16:14:59Z</time>
      </trkpt>
      <trkpt lat="64.03409" lon="-19.03523">
        <ele>577.34</ele>
        <time>2015-07-08T16:15:10Z</time>
      </trkpt>
      <trkpt lat="64.03418" lon="-19.03502">
        <ele>577.4</ele>
        <time>2015-07-08T16:15:18Z</time>
      </trkpt>
      <trkpt lat="64.03417" lon="-19.03505">
        <ele>577.11</ele>
        <time>2015-07-08T16:15:42Z</time>
      </trkpt>
      <trkpt lat="64.03413" lon="-19.03518">
        <ele>576.83</ele>
        <time>2015-07-08T16:16:06Z</time>
      </trkpt>
      <trkpt lat="64.03413" lon="-19.03516">
        <ele>575.65</ele>
        <time>2015-07-08T16:16:54Z</time>
      </trkpt>
      <trkpt lat="64.03415" lon="-19.03506">
        <ele>576.19</ele>
        <time>2015-07-08T16:17:24Z</time>
      </trkpt>
      <trkpt lat="64.03419" lon="-19.0349">
        <ele>575.97</ele>
        <time>2015-07-08T16:17:41Z</time>
      </trkpt>
      <trkpt lat="64.03417" lon="-19.03496">
        <ele>576.59</ele>
        <time>2015-07-08T16:18:23Z</time>
      </trkpt>
      <trkpt lat="64.03406" lon="-19.03531">
        <ele>576.3</ele>
        <time>2015-07-08T16:18:41Z</time>
      </trkpt>
      <trkpt lat="64.03405" lon="-19.03534">
        <ele>576.19</ele>
        <time>2015-07-08T16:18:46Z</time>
      </trkpt>
      <trkpt lat="64.03403" lon="-19.03541">
        <ele>576.14</ele>
        <time>2015-07-08T16:18:49Z</time>
      </trkpt>
      <trkpt lat="64.03391" lon="-19.0359">
        <ele>575.54</ele>
        <time>2015-07-08T16:19:07Z</time>
      </trkpt>
      <trkpt lat="64.03386" lon="-19.03632">
        <ele>575.55</ele>
        <time>2015-07-08T16:19:20Z</time>
      </trkpt>
      <trkpt lat="64.0338" lon="-19.03688">
        <ele>576.16</ele>
        <time>2015-07-08T16:19:38Z</time>
      </trkpt>
      <trkpt lat="64.03373" lon="-19.03743">
        <ele>575.74</ele>
        <time>2015-07-08T16:20:00Z</time>
      </trkpt>
      <trkpt lat="64.03372" lon="-19.03732">
        <ele>575.61</ele>
        <time>2015-07-08T16:20:03Z</time>
      </trkpt>
      <trkpt lat="64.03374" lon="-19.03719">
        <ele>575.99</ele>
        <time>2015-07-08T16:20:14Z</time>
      </trkpt>
      <trkpt lat="64.03374" lon="-19.03723">
        <ele>575.97</ele>
        <time>2015-07-08T16:20:21Z</time>
      </trkpt>
      <trkpt lat="64.03373" lon="-19.03751">
        <ele>576.05</ele>
        <time>2015-07-08T16:20:25Z</time>
      </trkpt>
      <trkpt lat="64.03342" lon="-19.03909">
        <ele>576.38</ele>
        <time>2015-07-08T16:20:39Z</time>
      </trkpt>
      <trkpt lat="64.03316" lon="-19.04047">
        <ele>576.6</ele>
        <time>2015-07-08T16:20:55Z</time>
      </trkpt>
      <trkpt lat="64.03316" lon="-19.04049">
        <ele>576.95</ele>
        <time>2015-07-08T16:21:10Z</time>
      </trkpt>
      <trkpt lat="64.03305" lon="-19.04065">
        <ele>576.82</ele>
        <time>2015-07-08T16:21:40Z</time>
      </trkpt>
      <trkpt lat="64.03298" lon="-19.04072">
        <ele>576.75</ele>
        <time>2015-07-08T16:21:42Z</time>
      </trkpt>
      <trkpt lat="64.03293" lon="-19.04121">
        <ele>576.76</ele>
        <time>2015-07-08T16:21:47Z</time>
      </trkpt>
      <trkpt lat="64.03295" lon="-19.04163">
        <ele>577.62</ele>
        <time>2015-07-08T16:21:50Z</time>
      </trkpt>
      <trkpt lat="64.03273" lon="-19.04366">
        <ele>578.75</ele>
        <time>2015-07-08T16:22:01Z</time>
      </trkpt>
      <trkpt lat="64.03237" lon="-19.04657">
        <ele>579.3</ele>
        <time>2015-07-08T16:22:15Z</time>
      </trkpt>
      <trkpt lat="64.03186" lon="-19.05085">
        <ele>579.54</ele>
        <time>2015-07-08T16:22:36Z</time>
      </trkpt>
      <trkpt lat="64.03177" lon="-19.05207">
        <ele>578.49</ele>
        <time>2015-07-08T16:22:44Z</time>
      </trkpt>
      <trkpt lat="64.03205" lon="-19.05321">
        <ele>580.24</ele>
        <time>2015-07-08T16:22:52Z</time>
      </trkpt>
      <trkpt lat="64.0322" lon="-19.05333">
        <ele>581.19</ele>
        <time>2015-07-08T16:22:54Z</time>
      </trkpt>
      <trkpt lat="64.0327" lon="-19.05368">
        <ele>585.25</ele>
        <time>2015-07-08T16:23:01Z</time>
      </trkpt>
      <trkpt lat="64.03294" lon="-19.05402">
        <ele>588.97</ele>
        <time>2015-07-08T16:23:05Z</time>
      </trkpt>
      <trkpt lat="64.0332" lon="-19.05453">
        <ele>592.56</ele>
        <time>2015-07-08T16:23:10Z</time>
      </trkpt>
      <trkpt lat="64.03327" lon="-19.05477">
        <ele>593.79</ele>
        <time>2015-07-08T16:23:12Z</time>
      </trkpt>
      <trkpt lat="64.03338" lon="-19.05551">
        <ele>595.98</ele>
        <time>2015-07-08T16:23:17Z</time>
      </trkpt>
      <trkpt lat="64.03334" lon="-19.05651">
        <ele>597.78</ele>
        <time>2015-07-08T16:23:24Z</time>
      </trkpt>
      <trkpt lat="64.03316" lon="-19.05716">
        <ele>598.51</ele>
        <time>2015-07-08T16:23:29Z</time>
      </trkpt>
      <trkpt lat="64.03246" lon="-19.0587">
        <ele>600.17</ele>
        <time>2015-07-08T16:23:44Z</time>
      </trkpt>
      <trkpt lat="64.03224" lon="-19.06034">
        <ele>599.83</ele>
        <time>2015-07-08T16:23:55Z</time>
      </trkpt>
      <trkpt lat="64.03218" lon="-19.06317">
        <ele>597.26</ele>
        <time>2015-07-08T16:24:13Z</time>
      </trkpt>
      <trkpt lat="64.03208" lon="-19.06548">
        <ele>598.42</ele>
        <time>2015-07-08T16:24:28Z</time>
      </trkpt>
      <trkpt lat="64.03192" lon="-19.06914">
        <ele>599.9</ele>
        <time>2015-07-08T16:24:49Z</time>
      </trkpt>
      <trkpt lat="64.03177" lon="-19.07288">
        <ele>603.19</ele>
        <time>2015-07-08T16:25:08Z</time>
      </trkpt>
      <trkpt lat="64.03176" lon="-19.07351">
        <ele>604.61</ele>
        <time>2015-07-08T16:25:12Z</time>
      </trkpt>
      <trkpt lat="64.03161" lon="-19.074">
        <ele>608.06</ele>
        <time>2015-07-08T16:25:18Z</time>
      </trkpt>
      <trkpt lat="64.03121" lon="-19.07477">
        <ele>611.71</ele>
        <time>2015-07-08T16:25:26Z</time>
      </trkpt>
      <trkpt lat="64.03087" lon="-19.07614">
        <ele>614.81</ele>
        <time>2015-07-08T16:25:36Z</time>
      </trkpt>
      <trkpt lat="64.03074" lon="-19.07784">
        <ele>617.98</ele>
        <time>2015-07-08T16:25:47Z</time>
      </trkpt>
      <trkpt lat="64.03054" lon="-19.07959">
        <ele>620.72</ele>
        <time>2015-07-08T16:25:58Z</time>
      </trkpt>
      <trkpt lat="64.03012" lon="-19.08104">
        <ele>622.48</ele>
        <time>2015-07-08T16:26:08Z</time>
      </trkpt>
      <trkpt lat="64.02999" lon="-19.0814">
        <ele>622.18</ele>
        <time>2015-07-08T16:26:17Z</time>
      </trkpt>
      <trkpt lat="64.03" lon="-19.0814">
        <ele>621.8</ele>
        <time>2015-07-08T16:26:28Z</time>
      </trkpt>
      <trkpt lat="64.02999" lon="-19.08149">
        <ele>621.76</ele>
        <time>2015-07-08T16:26:31Z</time>
      </trkpt>
      <trkpt lat="64.02987" lon="-19.08241">
        <ele>621.74</ele>
        <time>2015-07-08T16:26:40Z</time>
      </trkpt>
      <trkpt lat="64.02982" lon="-19.08343">
        <ele>621.81</ele>
        <time>2015-07-08T16:26:45Z</time>
      </trkpt>
      <trkpt lat="64.03007" lon="-19.08476">
        <ele>622.58</ele>
        <time>2015-07-08T16:26:52Z</time>
      </trkpt>
      <trkpt lat="64.03049" lon="-19.0855">
        <ele>626.11</ele>
        <time>2015-07-08T16:26:58Z</time>
      </trkpt>
      <trkpt lat="64.0307" lon="-19.08572">
        <ele>630.13</ele>
        <time>2015-07-08T16:27:01Z</time>
      </trkpt>
      <trkpt lat="64.03075" lon="-19.08579">
        <ele>631.32</ele>
        <time>2015-07-08T16:27:02Z</time>
      </trkpt>
      <trkpt lat="64.03092" lon="-19.08615">
        <ele>635.56</ele>
        <time>2015-07-08T16:27:06Z</time>
      </trkpt>
      <trkpt lat="64.03095" lon="-19.08653">
        <ele>638.01</ele>
        <time>2015-07-08T16:27:09Z</time>
      </trkpt>
      <trkpt lat="64.03094" lon="-19.08744">
        <ele>640.58</ele>
        <time>2015-07-08T16:27:20Z</time>
      </trkpt>
      <trkpt lat="64.03078" lon="-19.08838">
        <ele>637.57</ele>
        <time>2015-07-08T16:27:30Z</time>
      </trkpt>
      <trkpt lat="64.03046" lon="-19.08963">
        <ele>636.7</ele>
        <time>2015-07-08T16:27:37Z</time>
      </trkpt>
      <trkpt lat="64.03021" lon="-19.09057">
        <ele>639.63</ele>
        <time>2015-07-08T16:27:44Z</time>
      </trkpt>
      <trkpt lat="64.02967" lon="-19.09132">
        <ele>640.94</ele>
        <time>2015-07-08T16:27:58Z</time>
      </trkpt>
      <trkpt lat="64.02963" lon="-19.09138">
        <ele>640.88</ele>
        <time>2015-07-08T16:27:59Z</time>
      </trkpt>
      <trkpt lat="64.02946" lon="-19.09182">
        <ele>640.34</ele>
        <time>2015-07-08T16:28:04Z</time>
      </trkpt>
      <trkpt lat="64.02909" lon="-19.09368">
        <ele>639.42</ele>
        <time>2015-07-08T16:28:19Z</time>
      </trkpt>
      <trkpt lat="64.02907" lon="-19.0938">
        <ele>639.37</ele>
        <time>2015-07-08T16:28:20Z</time>
      </trkpt>
      <trkpt lat="64.02905" lon="-19.09467">
        <ele>639.68</ele>
        <time>2015-07-08T16:28:26Z</time>
      </trkpt>
      <trkpt lat="64.02926" lon="-19.09631">
        <ele>641.41</ele>
        <time>2015-07-08T16:28:37Z</time>
      </trkpt>
      <trkpt lat="64.02994" lon="-19.09778">
        <ele>643.7</ele>
        <time>2015-07-08T16:28:49Z</time>
      </trkpt>
      <trkpt lat="64.03056" lon="-19.0988">
        <ele>644.86</ele>
        <time>2015-07-08T16:28:59Z</time>
      </trkpt>
      <trkpt lat="64.03071" lon="-19.09986">
        <ele>645.67</ele>
        <time>2015-07-08T16:29:06Z</time>
      </trkpt>
      <trkpt lat="64.03051" lon="-19.10117">
        <ele>648.1</ele>
        <time>2015-07-08T16:29:15Z</time>
      </trkpt>
      <trkpt lat="64.03004" lon="-19.1024">
        <ele>650.45</ele>
        <time>2015-07-08T16:29:28Z</time>
      </trkpt>
      <trkpt lat="64.02985" lon="-19.10304">
        <ele>650.03</ele>
        <time>2015-07-08T16:29:34Z</time>
      </trkpt>
      <trkpt lat="64.02982" lon="-19.10349">
        <ele>649.8</ele>
        <time>2015-07-08T16:29:38Z</time>
      </trkpt>
      <trkpt lat="64.02982" lon="-19.10421">
        <ele>650.6</ele>
        <time>2015-07-08T16:29:45Z</time>
      </trkpt>
      <trkpt lat="64.02963" lon="-19.10606">
        <ele>649.23</ele>
        <time>2015-07-08T16:29:59Z</time>
      </trkpt>
      <trkpt lat="64.0295" lon="-19.10802">
        <ele>650.11</ele>
        <time>2015-07-08T16:30:11Z</time>
      </trkpt>
      <trkpt lat="64.02943" lon="-19.10874">
        <ele>649.18</ele>
        <time>2015-07-08T16:30:17Z</time>
      </trkpt>
      <trkpt lat="64.02954" lon="-19.11089">
        <ele>648.66</ele>
        <time>2015-07-08T16:30:31Z</time>
      </trkpt>
      <trkpt lat="64.02991" lon="-19.11199">
        <ele>647.62</ele>
        <time>2015-07-08T16:30:40Z</time>
      </trkpt>
      <trkpt lat="64.03016" lon="-19.11235">
        <ele>647.43</ele>
        <time>2015-07-08T16:30:45Z</time>
      </trkpt>
      <trkpt lat="64.03033" lon="-19.11291">
        <ele>646.76</ele>
        <time>2015-07-08T16:30:53Z</time>
      </trkpt>
      <trkpt lat="64.03042" lon="-19.11389">
        <ele>643.51</ele>
        <time>2015-07-08T16:31:05Z</time>
      </trkpt>
      <trkpt lat="64.03049" lon="-19.11433">
        <ele>642.15</ele>
        <time>2015-07-08T16:31:09Z</time>
      </trkpt>
      <trkpt lat="64.0306" lon="-19.11538">
        <ele>639.6</ele>
        <time>2015-07-08T16:31:19Z</time>
      </trkpt>
      <trkpt lat="64.03084" lon="-19.11548">
        <ele>639.74</ele>
        <time>2015-07-08T16:31:24Z</time>
      </trkpt>
      <trkpt lat="64.03093" lon="-19.11541">
        <ele>639.56</ele>
        <time>2015-07-08T16:31:26Z</time>
      </trkpt>
      <trkpt lat="64.03116" lon="-19.11543">
        <ele>639.24</ele>
        <time>2015-07-08T16:31:31Z</time>
      </trkpt>
      <trkpt lat="64.03148" lon="-19.11601">
        <ele>640.98</ele>
        <time>2015-07-08T16:31:38Z</time>
      </trkpt>
      <trkpt lat="64.03194" lon="-19.11736">
        <ele>642.12</ele>
        <time>2015-07-08T16:31:51Z</time>
      </trkpt>
      <trkpt lat="64.03222" lon="-19.11804">
        <ele>641.15</ele>
        <time>2015-07-08T16:31:58Z</time>
      </trkpt>
      <trkpt lat="64.03239" lon="-19.11825">
        <ele>640.57</ele>
        <time>2015-07-08T16:32:02Z</time>
      </trkpt>
      <trkpt lat="64.03252" lon="-19.11847">
        <ele>639.93</ele>
        <time>2015-07-08T16:32:06Z</time>
      </trkpt>
      <trkpt lat="64.03261" lon="-19.11897">
        <ele>639.21</ele>
        <time>2015-07-08T16:32:11Z</time>
      </trkpt>
      <trkpt lat="64.03271" lon="-19.11994">
        <ele>635.94</ele>
        <time>2015-07-08T16:32:20Z</time>
      </trkpt>
      <trkpt lat="64.03274" lon="-19.12013">
        <ele>635.16</ele>
        <time>2015-07-08T16:32:22Z</time>
      </trkpt>
      <trkpt lat="64.0328" lon="-19.12055">
        <ele>633.89</ele>
        <time>2015-07-08T16:32:26Z</time>
      </trkpt>
      <trkpt lat="64.03307" lon="-19.12105">
        <ele>632.76</ele>
        <time>2015-07-08T16:32:32Z</time>
      </trkpt>
      <trkpt lat="64.03349" lon="-19.12144">
        <ele>629.44</ele>
        <time>2015-07-08T16:32:40Z</time>
      </trkpt>
      <trkpt lat="64.03363" lon="-19.12153">
        <ele>628.16</ele>
        <time>2015-07-08T16:32:43Z</time>
      </trkpt>
      <trkpt lat="64.03378" lon="-19.12173">
        <ele>627.2</ele>
        <time>2015-07-08T16:32:47Z</time>
      </trkpt>
      <trkpt lat="64.03415" lon="-19.12263">
        <ele>623.75</ele>
        <time>2015-07-08T16:32:58Z</time>
      </trkpt>
      <trkpt lat="64.03441" lon="-19.12308">
        <ele>620.48</ele>
        <time>2015-07-08T16:33:04Z</time>
      </trkpt>
      <trkpt lat="64.03455" lon="-19.12347">
        <ele>616.83</ele>
        <time>2015-07-08T16:33:09Z</time>
      </trkpt>
      <trkpt lat="64.03464" lon="-19.12371">
        <ele>612.51</ele>
        <time>2015-07-08T16:33:14Z</time>
      </trkpt>
      <trkpt lat="64.03464" lon="-19.12369">
        <ele>609.49</ele>
        <time>2015-07-08T16:33:20Z</time>
      </trkpt>
      <trkpt lat="64.03462" lon="-19.12367">
        <ele>607.89</ele>
        <time>2015-07-08T16:33:39Z</time>
      </trkpt>
      <trkpt lat="64.03459" lon="-19.12365">
        <ele>608.04</ele>
        <time>2015-07-08T16:34:24Z</time>
      </trkpt>
      <trkpt lat="64.03459" lon="-19.12365">
        <ele>607.77</ele>
        <time>2015-07-08T16:34:55Z</time>
      </trkpt>
      <trkpt lat="64.03459" lon="-19.12367">
        <ele>607.91</ele>
        <time>2015-07-08T16:34:57Z</time>
      </trkpt>
      <trkpt lat="64.03464" lon="-19.12406">
        <ele>608.21</ele>
        <time>2015-07-08T16:35:02Z</time>
      </trkpt>
      <trkpt lat="64.0349" lon="-19.12524">
        <ele>608.17</ele>
        <time>2015-07-08T16:35:12Z</time>
      </trkpt>
      <trkpt lat="64.03488" lon="-19.12577">
        <ele>606.39</ele>
        <time>2015-07-08T16:35:17Z</time>
      </trkpt>
      <trkpt lat="64.03481" lon="-19.12593">
        <ele>604.57</ele>
        <time>2015-07-08T16:35:19Z</time>
      </trkpt>
      <trkpt lat="64.03466" lon="-19.12629">
        <ele>601.92</ele>
        <time>2015-07-08T16:35:23Z</time>
      </trkpt>
      <trkpt lat="64.03456" lon="-19.12692">
        <ele>599.15</ele>
        <time>2015-07-08T16:35:29Z</time>
      </trkpt>
      <trkpt lat="64.03456" lon="-19.12722">
        <ele>598.69</ele>
        <time>2015-07-08T16:35:32Z</time>
      </trkpt>
      <trkpt lat="64.0345" lon="-19.12762">
        <ele>598.29</ele>
        <time>2015-07-08T16:35:36Z</time>
      </trkpt>
      <trkpt lat="64.03441" lon="-19.12787">
        <ele>597</ele>
        <time>2015-07-08T16:35:39Z</time>
      </trkpt>
      <trkpt lat="64.03437" lon="-19.12804">
        <ele>595.99</ele>
        <time>2015-07-08T16:35:41Z</time>
      </trkpt>
      <trkpt lat="64.03434" lon="-19.12818">
        <ele>594.57</ele>
        <time>2015-07-08T16:35:43Z</time>
      </trkpt>
      <trkpt lat="64.03432" lon="-19.1285">
        <ele>591.93</ele>
        <time>2015-07-08T16:35:49Z</time>
      </trkpt>
      <trkpt lat="64.03437" lon="-19.129">
        <ele>591.1</ele>
        <time>2015-07-08T16:35:53Z</time>
      </trkpt>
      <trkpt lat="64.03418" lon="-19.12959">
        <ele>588.72</ele>
        <time>2015-07-08T16:36:00Z</time>
      </trkpt>
      <trkpt lat="64.03406" lon="-19.12956">
        <ele>587.45</ele>
        <time>2015-07-08T16:36:02Z</time>
      </trkpt>
      <trkpt lat="64.03389" lon="-19.12946">
        <ele>585.96</ele>
        <time>2015-07-08T16:36:05Z</time>
      </trkpt>
      <trkpt lat="64.03374" lon="-19.12941">
        <ele>584.61</ele>
        <time>2015-07-08T16:36:08Z</time>
      </trkpt>
      <trkpt lat="64.03348" lon="-19.1296">
        <ele>582.97</ele>
        <time>2015-07-08T16:36:13Z</time>
      </trkpt>
      <trkpt lat="64.03332" lon="-19.12987">
        <ele>579.38</ele>
        <time>2015-07-08T16:36:19Z</time>
      </trkpt>
      <trkpt lat="64.03332" lon="-19.12987">
        <ele>576.31</ele>
        <time>2015-07-08T16:36:27Z</time>
      </trkpt>
      <trkpt lat="64.0331" lon="-19.13032">
        <ele>575.33</ele>
        <time>2015-07-08T16:36:37Z</time>
      </trkpt>
      <trkpt lat="64.03245" lon="-19.1319">
        <ele>574.69</ele>
        <time>2015-07-08T16:36:47Z</time>
      </trkpt>
      <trkpt lat="64.03145" lon="-19.13503">
        <ele>573.47</ele>
        <time>2015-07-08T16:37:01Z</time>
      </trkpt>
      <trkpt lat="64.03053" lon="-19.13816">
        <ele>574.22</ele>
        <time>2015-07-08T16:37:14Z</time>
      </trkpt>
      <trkpt lat="64.03007" lon="-19.14117">
        <ele>576.29</ele>
        <time>2015-07-08T16:37:25Z</time>
      </trkpt>
      <trkpt lat="64.0296" lon="-19.14458">
        <ele>575.18</ele>
        <time>2015-07-08T16:37:38Z</time>
      </trkpt>
      <trkpt lat="64.02908" lon="-19.14681">
        <ele>574.38</ele>
        <time>2015-07-08T16:37:48Z</time>
      </trkpt>
      <trkpt lat="64.02859" lon="-19.14937">
        <ele>575.57</ele>
        <time>2015-07-08T16:37:59Z</time>
      </trkpt>
      <trkpt lat="64.0283" lon="-19.1506">
        <ele>576.01</ele>
        <time>2015-07-08T16:38:05Z</time>
      </trkpt>
      <trkpt lat="64.02805" lon="-19.15369">
        <ele>578.23</ele>
        <time>2015-07-08T16:38:18Z</time>
      </trkpt>
      <trkpt lat="64.02787" lon="-19.15591">
        <ele>580.01</ele>
        <time>2015-07-08T16:38:28Z</time>
      </trkpt>
      <trkpt lat="64.02804" lon="-19.1571">
        <ele>580.79</ele>
        <time>2015-07-08T16:38:35Z</time>
      </trkpt>
      <trkpt lat="64.02811" lon="-19.15725">
        <ele>580.96</ele>
        <time>2015-07-08T16:38:37Z</time>
      </trkpt>
      <trkpt lat="64.02829" lon="-19.15737">
        <ele>578.7</ele>
        <time>2015-07-08T16:38:47Z</time>
      </trkpt>
      <trkpt lat="64.02833" lon="-19.15743">
        <ele>578.35</ele>
        <time>2015-07-08T16:38:49Z</time>
      </trkpt>
      <trkpt lat="64.02835" lon="-19.15832">
        <ele>578.59</ele>
        <time>2015-07-08T16:38:58Z</time>
      </trkpt>
      <trkpt lat="64.02815" lon="-19.15858">
        <ele>578.8</ele>
        <time>2015-07-08T16:39:03Z</time>
      </trkpt>
      <trkpt lat="64.02748" lon="-19.15852">
        <ele>582.55</ele>
        <time>2015-07-08T16:39:14Z</time>
      </trkpt>
      <trkpt lat="64.02722" lon="-19.15845">
        <ele>585.65</ele>
        <time>2015-07-08T16:39:18Z</time>
      </trkpt>
      <trkpt lat="64.02699" lon="-19.15838">
        <ele>589.14</ele>
        <time>2015-07-08T16:39:22Z</time>
      </trkpt>
      <trkpt lat="64.02687" lon="-19.15833">
        <ele>590.81</ele>
        <time>2015-07-08T16:39:24Z</time>
      </trkpt>
      <trkpt lat="64.02663" lon="-19.15836">
        <ele>594.99</ele>
        <time>2015-07-08T16:39:28Z</time>
      </trkpt>
      <trkpt lat="64.02642" lon="-19.15861">
        <ele>598.53</ele>
        <time>2015-07-08T16:39:32Z</time>
      </trkpt>
      <trkpt lat="64.02637" lon="-19.1587">
        <ele>599.39</ele>
        <time>2015-07-08T16:39:33Z</time>
      </trkpt>
      <trkpt lat="64.02613" lon="-19.15922">
        <ele>603.94</ele>
        <time>2015-07-08T16:39:38Z</time>
      </trkpt>
      <trkpt lat="64.02605" lon="-19.15944">
        <ele>605.91</ele>
        <time>2015-07-08T16:39:40Z</time>
      </trkpt>
      <trkpt lat="64.02596" lon="-19.16003">
        <ele>610.58</ele>
        <time>2015-07-08T16:39:45Z</time>
      </trkpt>
      <trkpt lat="64.02597" lon="-19.16055">
        <ele>613.58</ele>
        <time>2015-07-08T16:39:49Z</time>
      </trkpt>
      <trkpt lat="64.02599" lon="-19.16071">
        <ele>614.78</ele>
        <time>2015-07-08T16:39:51Z</time>
      </trkpt>
      <trkpt lat="64.026" lon="-19.1608">
        <ele>615.83</ele>
        <time>2015-07-08T16:39:53Z</time>
      </trkpt>
      <trkpt lat="64.0261" lon="-19.16133">
        <ele>615.95</ele>
        <time>2015-07-08T16:40:05Z</time>
      </trkpt>
      <trkpt lat="64.02615" lon="-19.16149">
        <ele>615.32</ele>
        <time>2015-07-08T16:40:16Z</time>
      </trkpt>
      <trkpt lat="64.0262" lon="-19.16165">
        <ele>615.3</ele>
        <time>2015-07-08T16:40:19Z</time>
      </trkpt>
      <trkpt lat="64.02639" lon="-19.16253">
        <ele>617.28</ele>
        <time>2015-07-08T16:40:33Z</time>
      </trkpt>
      <trkpt lat="64.02639" lon="-19.16353">
        <ele>615.96</ele>
        <time>2015-07-08T16:40:42Z</time>
      </trkpt>
      <trkpt lat="64.02629" lon="-19.16437">
        <ele>613.51</ele>
        <time>2015-07-08T16:40:48Z</time>
      </trkpt>
      <trkpt lat="64.0263" lon="-19.16503">
        <ele>611.48</ele>
        <time>2015-07-08T16:40:53Z</time>
      </trkpt>
      <trkpt lat="64.02654" lon="-19.1665">
        <ele>607.92</ele>
        <time>2015-07-08T16:41:04Z</time>
      </trkpt>
      <trkpt lat="64.02684" lon="-19.16844">
        <ele>608.43</ele>
        <time>2015-07-08T16:41:12Z</time>
      </trkpt>
      <trkpt lat="64.02724" lon="-19.17194">
        <ele>609.19</ele>
        <time>2015-07-08T16:41:24Z</time>
      </trkpt>
      <trkpt lat="64.02722" lon="-19.1751">
        <ele>607.11</ele>
        <time>2015-07-08T16:41:35Z</time>
      </trkpt>
      <trkpt lat="64.02689" lon="-19.17878">
        <ele>605.23</ele>
        <time>2015-07-08T16:41:49Z</time>
      </trkpt>
      <trkpt lat="64.02627" lon="-19.18324">
        <ele>604.67</ele>
        <time>2015-07-08T16:42:08Z</time>
      </trkpt>
      <trkpt lat="64.02622" lon="-19.18369">
        <ele>602.46</ele>
        <time>2015-07-08T16:42:14Z</time>
      </trkpt>
      <trkpt lat="64.02616" lon="-19.18424">
        <ele>601.12</ele>
        <time>2015-07-08T16:42:19Z</time>
      </trkpt>
      <trkpt lat="64.02619" lon="-19.18492">
        <ele>601.82</ele>
        <time>2015-07-08T16:42:23Z</time>
      </trkpt>
      <trkpt lat="64.02638" lon="-19.18609">
        <ele>602.85</ele>
        <time>2015-07-08T16:42:30Z</time>
      </trkpt>
      <trkpt lat="64.02663" lon="-19.18781">
        <ele>602.57</ele>
        <time>2015-07-08T16:42:40Z</time>
      </trkpt>
      <trkpt lat="64.02688" lon="-19.18943">
        <ele>600.61</ele>
        <time>2015-07-08T16:42:51Z</time>
      </trkpt>
      <trkpt lat="64.027" lon="-19.1902">
        <ele>599</ele>
        <time>2015-07-08T16:43:02Z</time>
      </trkpt>
      <trkpt lat="64.02714" lon="-19.19089">
        <ele>598.52</ele>
        <time>2015-07-08T16:43:11Z</time>
      </trkpt>
      <trkpt lat="64.02749" lon="-19.19234">
        <ele>599.48</ele>
        <time>2015-07-08T16:43:22Z</time>
      </trkpt>
      <trkpt lat="64.02794" lon="-19.19415">
        <ele>600.47</ele>
        <time>2015-07-08T16:43:34Z</time>
      </trkpt>
      <trkpt lat="64.02823" lon="-19.19525">
        <ele>598.49</ele>
        <time>2015-07-08T16:43:47Z</time>
      </trkpt>
      <trkpt lat="64.0286" lon="-19.19677">
        <ele>599.12</ele>
        <time>2015-07-08T16:43:57Z</time>
      </trkpt>
      <trkpt lat="64.02899" lon="-19.19825">
        <ele>599.65</ele>
        <time>2015-07-08T16:44:08Z</time>
      </trkpt>
      <trkpt lat="64.02918" lon="-19.19896">
        <ele>597.82</ele>
        <time>2015-07-08T16:44:16Z</time>
      </trkpt>
      <trkpt lat="64.0295" lon="-19.20007">
        <ele>598.65</ele>
        <time>2015-07-08T16:44:24Z</time>
      </trkpt>
      <trkpt lat="64.02978" lon="-19.2012">
        <ele>596.43</ele>
        <time>2015-07-08T16:44:39Z</time>
      </trkpt>
      <trkpt lat="64.02983" lon="-19.20151">
        <ele>596.1</ele>
        <time>2015-07-08T16:44:43Z</time>
      </trkpt>
      <trkpt lat="64.02993" lon="-19.20238">
        <ele>596.09</ele>
        <time>2015-07-08T16:44:55Z</time>
      </trkpt>
      <trkpt lat="64.02999" lon="-19.20314">
        <ele>596.1</ele>
        <time>2015-07-08T16:45:04Z</time>
      </trkpt>
      <trkpt lat="64.03002" lon="-19.20385">
        <ele>596.04</ele>
        <time>2015-07-08T16:45:15Z</time>
      </trkpt>
      <trkpt lat="64.03011" lon="-19.20466">
        <ele>596.29</ele>
        <time>2015-07-08T16:45:23Z</time>
      </trkpt>
      <trkpt lat="64.03033" lon="-19.20624">
        <ele>599.37</ele>
        <time>2015-07-08T16:45:30Z</time>
      </trkpt>
      <trkpt lat="64.0306" lon="-19.20838">
        <ele>602.69</ele>
        <time>2015-07-08T16:45:38Z</time>
      </trkpt>
      <trkpt lat="64.03119" lon="-19.2122">
        <ele>603.44</ele>
        <time>2015-07-08T16:45:53Z</time>
      </trkpt>
      <trkpt lat="64.032" lon="-19.21531">
        <ele>602.67</ele>
        <time>2015-07-08T16:46:07Z</time>
      </trkpt>
      <trkpt lat="64.03295" lon="-19.21867">
        <ele>602.29</ele>
        <time>2015-07-08T16:46:22Z</time>
      </trkpt>
      <trkpt lat="64.03314" lon="-19.22042">
        <ele>599.71</ele>
        <time>2015-07-08T16:46:32Z</time>
      </trkpt>
      <trkpt lat="64.03318" lon="-19.22304">
        <ele>601</ele>
        <time>2015-07-08T16:46:43Z</time>
      </trkpt>
      <trkpt lat="64.03323" lon="-19.22645">
        <ele>600.29</ele>
        <time>2015-07-08T16:46:58Z</time>
      </trkpt>
      <trkpt lat="64.03322" lon="-19.2309">
        <ele>600.45</ele>
        <time>2015-07-08T16:47:16Z</time>
      </trkpt>
      <trkpt lat="64.03302" lon="-19.23262">
        <ele>599.31</ele>
        <time>2015-07-08T16:47:24Z</time>
      </trkpt>
      <trkpt lat="64.03304" lon="-19.23344">
        <ele>599.23</ele>
        <time>2015-07-08T16:47:28Z</time>
      </trkpt>
      <trkpt lat="64.03309" lon="-19.2338">
        <ele>599.48</ele>
        <time>2015-07-08T16:47:30Z</time>
      </trkpt>
      <trkpt lat="64.03292" lon="-19.23458">
        <ele>598.32</ele>
        <time>2015-07-08T16:47:37Z</time>
      </trkpt>
      <trkpt lat="64.03274" lon="-19.23468">
        <ele>597.63</ele>
        <time>2015-07-08T16:47:40Z</time>
      </trkpt>
      <trkpt lat="64.03183" lon="-19.2352">
        <ele>597.24</ele>
        <time>2015-07-08T16:47:51Z</time>
      </trkpt>
      <trkpt lat="64.03056" lon="-19.23634">
        <ele>598.62</ele>
        <time>2015-07-08T16:48:05Z</time>
      </trkpt>
      <trkpt lat="64.02982" lon="-19.23769">
        <ele>599.09</ele>
        <time>2015-07-08T16:48:16Z</time>
      </trkpt>
      <trkpt lat="64.02886" lon="-19.23925">
        <ele>599.49</ele>
        <time>2015-07-08T16:48:29Z</time>
      </trkpt>
      <trkpt lat="64.02838" lon="-19.24069">
        <ele>600.12</ele>
        <time>2015-07-08T16:48:38Z</time>
      </trkpt>
      <trkpt lat="64.02769" lon="-19.24292">
        <ele>600.66</ele>
        <time>2015-07-08T16:48:50Z</time>
      </trkpt>
      <trkpt lat="64.02734" lon="-19.2441">
        <ele>600.35</ele>
        <time>2015-07-08T16:48:58Z</time>
      </trkpt>
      <trkpt lat="64.02732" lon="-19.24417">
        <ele>598.3</ele>
        <time>2015-07-08T16:49:06Z</time>
      </trkpt>
      <trkpt lat="64.02734" lon="-19.24439">
        <ele>597.94</ele>
        <time>2015-07-08T16:49:14Z</time>
      </trkpt>
      <trkpt lat="64.02733" lon="-19.24454">
        <ele>597.97</ele>
        <time>2015-07-08T16:49:17Z</time>
      </trkpt>
      <trkpt lat="64.02726" lon="-19.24481">
        <ele>597.91</ele>
        <time>2015-07-08T16:49:21Z</time>
      </trkpt>
      <trkpt lat="64.02717" lon="-19.24502">
        <ele>597.85</ele>
        <time>2015-07-08T16:49:24Z</time>
      </trkpt>
      <trkpt lat="64.027" lon="-19.24547">
        <ele>597.78</ele>
        <time>2015-07-08T16:49:32Z</time>
      </trkpt>
      <trkpt lat="64.02687" lon="-19.24584">
        <ele>597.81</ele>
        <time>2015-07-08T16:49:36Z</time>
      </trkpt>
      <trkpt lat="64.02632" lon="-19.24878">
        <ele>599.75</ele>
        <time>2015-07-08T16:49:55Z</time>
      </trkpt>
      <trkpt lat="64.02594" lon="-19.25074">
        <ele>599.98</ele>
        <time>2015-07-08T16:50:06Z</time>
      </trkpt>
      <trkpt lat="64.02539" lon="-19.25344">
        <ele>599.9</ele>
        <time>2015-07-08T16:50:20Z</time>
      </trkpt>
      <trkpt lat="64.02524" lon="-19.25424">
        <ele>600.37</ele>
        <time>2015-07-08T16:50:24Z</time>
      </trkpt>
      <trkpt lat="64.02525" lon="-19.25649">
        <ele>601.72</ele>
        <time>2015-07-08T16:50:33Z</time>
      </trkpt>
      <trkpt lat="64.02566" lon="-19.26036">
        <ele>603.67</ele>
        <time>2015-07-08T16:50:45Z</time>
      </trkpt>
      <trkpt lat="64.02626" lon="-19.26409">
        <ele>603.51</ele>
        <time>2015-07-08T16:50:58Z</time>
      </trkpt>
      <trkpt lat="64.02691" lon="-19.26792">
        <ele>601.31</ele>
        <time>2015-07-08T16:51:12Z</time>
      </trkpt>
      <trkpt lat="64.02717" lon="-19.27148">
        <ele>600.47</ele>
        <time>2015-07-08T16:51:24Z</time>
      </trkpt>
      <trkpt lat="64.02761" lon="-19.27403">
        <ele>601.04</ele>
        <time>2015-07-08T16:51:33Z</time>
      </trkpt>
      <trkpt lat="64.02876" lon="-19.27747">
        <ele>601.43</ele>
        <time>2015-07-08T16:51:47Z</time>
      </trkpt>
      <trkpt lat="64.02957" lon="-19.27919">
        <ele>600.29</ele>
        <time>2015-07-08T16:51:56Z</time>
      </trkpt>
      <trkpt lat="64.0305" lon="-19.28074">
        <ele>598.95</ele>
        <time>2015-07-08T16:52:07Z</time>
      </trkpt>
      <trkpt lat="64.03095" lon="-19.28166">
        <ele>595.66</ele>
        <time>2015-07-08T16:52:17Z</time>
      </trkpt>
      <trkpt lat="64.03138" lon="-19.28257">
        <ele>594.2</ele>
        <time>2015-07-08T16:52:29Z</time>
      </trkpt>
      <trkpt lat="64.03245" lon="-19.28447">
        <ele>596.5</ele>
        <time>2015-07-08T16:52:46Z</time>
      </trkpt>
      <trkpt lat="64.03346" lon="-19.2865">
        <ele>596.14</ele>
        <time>2015-07-08T16:53:02Z</time>
      </trkpt>
      <trkpt lat="64.03423" lon="-19.2884">
        <ele>595.84</ele>
        <time>2015-07-08T16:53:16Z</time>
      </trkpt>
      <trkpt lat="64.03504" lon="-19.29055">
        <ele>595.14</ele>
        <time>2015-07-08T16:53:32Z</time>
      </trkpt>
      <trkpt lat="64.03551" lon="-19.2927">
        <ele>595.16</ele>
        <time>2015-07-08T16:53:45Z</time>
      </trkpt>
      <trkpt lat="64.03586" lon="-19.29564">
        <ele>595.68</ele>
        <time>2015-07-08T16:54:00Z</time>
      </trkpt>
      <trkpt lat="64.03621" lon="-19.29866">
        <ele>596.92</ele>
        <time>2015-07-08T16:54:14Z</time>
      </trkpt>
      <trkpt lat="64.03647" lon="-19.30085">
        <ele>600.03</ele>
        <time>2015-07-08T16:54:21Z</time>
      </trkpt>
      <trkpt lat="64.03715" lon="-19.30597">
        <ele>602.91</ele>
        <time>2015-07-08T16:54:37Z</time>
      </trkpt>
      <trkpt lat="64.03787" lon="-19.31036">
        <ele>603.55</ele>
        <time>2015-07-08T16:54:51Z</time>
      </trkpt>
      <trkpt lat="64.03866" lon="-19.31375">
        <ele>601.4</ele>
        <time>2015-07-08T16:55:03Z</time>
      </trkpt>
      <trkpt lat="64.03904" lon="-19.31719">
        <ele>599.87</ele>
        <time>2015-07-08T16:55:14Z</time>
      </trkpt>
      <trkpt lat="64.03927" lon="-19.32024">
        <ele>597.6</ele>
        <time>2015-07-08T16:55:25Z</time>
      </trkpt>
      <trkpt lat="64.03939" lon="-19.32241">
        <ele>594.59</ele>
        <time>2015-07-08T16:55:33Z</time>
      </trkpt>
      <trkpt lat="64.03969" lon="-19.32471">
        <ele>591.23</ele>
        <time>2015-07-08T16:55:43Z</time>
      </trkpt>
      <trkpt lat="64.03993" lon="-19.32673">
        <ele>588.72</ele>
        <time>2015-07-08T16:55:54Z</time>
      </trkpt>
      <trkpt lat="64.04013" lon="-19.3274">
        <ele>586.19</ele>
        <time>2015-07-08T16:56:04Z</time>
      </trkpt>
      <trkpt lat="64.04013" lon="-19.32737">
        <ele>584.34</ele>
        <time>2015-07-08T16:56:24Z</time>
      </trkpt>
      <trkpt lat="64.04013" lon="-19.32734">
        <ele>584.45</ele>
        <time>2015-07-08T16:56:38Z</time>
      </trkpt>
      <trkpt lat="64.04001" lon="-19.32708">
        <ele>584.43</ele>
        <time>2015-07-08T16:56:48Z</time>
      </trkpt>
      <trkpt lat="64.04004" lon="-19.32715">
        <ele>584.53</ele>
        <time>2015-07-08T16:57:05Z</time>
      </trkpt>
      <trkpt lat="64.03998" lon="-19.32705">
        <ele>584.18</ele>
        <time>2015-07-08T16:57:12Z</time>
      </trkpt>
      <trkpt lat="64.04" lon="-19.32713">
        <ele>584.25</ele>
        <time>2015-07-08T16:57:15Z</time>
      </trkpt>
      <trkpt lat="64.04009" lon="-19.32762">
        <ele>583.76</ele>
        <time>2015-07-08T16:57:26Z</time>
      </trkpt>
      <trkpt lat="64.0401" lon="-19.32762">
        <ele>583.51</ele>
        <time>2015-07-08T16:58:05Z</time>
      </trkpt>
      <trkpt lat="64.04007" lon="-19.32746">
        <ele>583.42</ele>
        <time>2015-07-08T16:59:08Z</time>
      </trkpt>
      <trkpt lat="64.04011" lon="-19.32752">
        <ele>583.62</ele>
        <time>2015-07-08T16:59:13Z</time>
      </trkpt>
      <trkpt lat="64.04015" lon="-19.32757">
        <ele>583.73</ele>
        <time>2015-07-08T16:59:23Z</time>
      </trkpt>
      <trkpt lat="64.04018" lon="-19.32756">
        <ele>583.76</ele>
        <time>2015-07-08T16:59:25Z</time>
      </trkpt>
      <trkpt lat="64.04017" lon="-19.32732">
        <ele>583.9</ele>
        <time>2015-07-08T16:59:34Z</time>
      </trkpt>
      <trkpt lat="64.04016" lon="-19.32733">
        <ele>583.82</ele>
        <time>2015-07-08T16:59:56Z</time>
      </trkpt>
      <trkpt lat="64.04014" lon="-19.32736">
        <ele>583.59</ele>
        <time>2015-07-08T17:00:28Z</time>
      </trkpt>
      <trkpt lat="64.0401" lon="-19.32733">
        <ele>583.63</ele>
        <time>2015-07-08T17:00:30Z</time>
      </trkpt>
      <trkpt lat="64.04004" lon="-19.32752">
        <ele>583.73</ele>
        <time>2015-07-08T17:00:35Z</time>
      </trkpt>
      <trkpt lat="64.04007" lon="-19.32789">
        <ele>583.85</ele>
        <time>2015-07-08T17:00:39Z</time>
      </trkpt>
      <trkpt lat="64.04019" lon="-19.32864">
        <ele>583.47</ele>
        <time>2015-07-08T17:00:47Z</time>
      </trkpt>
      <trkpt lat="64.04015" lon="-19.32918">
        <ele>583.7</ele>
        <time>2015-07-08T17:00:52Z</time>
      </trkpt>
      <trkpt lat="64.03971" lon="-19.33021">
        <ele>585.98</ele>
        <time>2015-07-08T17:01:03Z</time>
      </trkpt>
      <trkpt lat="64.03915" lon="-19.3318">
        <ele>588.42</ele>
        <time>2015-07-08T17:01:14Z</time>
      </trkpt>
      <trkpt lat="64.03884" lon="-19.33354">
        <ele>588.86</ele>
        <time>2015-07-08T17:01:24Z</time>
      </trkpt>
      <trkpt lat="64.03879" lon="-19.33425">
        <ele>588.05</ele>
        <time>2015-07-08T17:01:31Z</time>
      </trkpt>
      <trkpt lat="64.03882" lon="-19.33657">
        <ele>587.71</ele>
        <time>2015-07-08T17:01:41Z</time>
      </trkpt>
      <trkpt lat="64.03891" lon="-19.33939">
        <ele>588.02</ele>
        <time>2015-07-08T17:01:52Z</time>
      </trkpt>
      <trkpt lat="64.03901" lon="-19.34229">
        <ele>586.56</ele>
        <time>2015-07-08T17:02:06Z</time>
      </trkpt>
      <trkpt lat="64.03914" lon="-19.34357">
        <ele>584.64</ele>
        <time>2015-07-08T17:02:17Z</time>
      </trkpt>
      <trkpt lat="64.03965" lon="-19.34549">
        <ele>585.51</ele>
        <time>2015-07-08T17:02:27Z</time>
      </trkpt>
      <trkpt lat="64.04029" lon="-19.34694">
        <ele>584.01</ele>
        <time>2015-07-08T17:02:37Z</time>
      </trkpt>
      <trkpt lat="64.04133" lon="-19.34839">
        <ele>582.74</ele>
        <time>2015-07-08T17:02:52Z</time>
      </trkpt>
      <trkpt lat="64.0426" lon="-19.35015">
        <ele>581.19</ele>
        <time>2015-07-08T17:03:11Z</time>
      </trkpt>
      <trkpt lat="64.04274" lon="-19.35035">
        <ele>581.07</ele>
        <time>2015-07-08T17:03:13Z</time>
      </trkpt>
      <trkpt lat="64.04356" lon="-19.35125">
        <ele>580.74</ele>
        <time>2015-07-08T17:03:24Z</time>
      </trkpt>
      <trkpt lat="64.04463" lon="-19.35299">
        <ele>579.59</ele>
        <time>2015-07-08T17:03:39Z</time>
      </trkpt>
      <trkpt lat="64.04491" lon="-19.35335">
        <ele>578.25</ele>
        <time>2015-07-08T17:03:48Z</time>
      </trkpt>
      <trkpt lat="64.04492" lon="-19.35335">
        <ele>577.75</ele>
        <time>2015-07-08T17:03:53Z</time>
      </trkpt>
      <trkpt lat="64.04509" lon="-19.35347">
        <ele>577.85</ele>
        <time>2015-07-08T17:03:58Z</time>
      </trkpt>
      <trkpt lat="64.04555" lon="-19.35405">
        <ele>577.79</ele>
        <time>2015-07-08T17:04:06Z</time>
      </trkpt>
      <trkpt lat="64.0457" lon="-19.35436">
        <ele>577.47</ele>
        <time>2015-07-08T17:04:15Z</time>
      </trkpt>
      <trkpt lat="64.04569" lon="-19.35432">
        <ele>577.33</ele>
        <time>2015-07-08T17:04:47Z</time>
      </trkpt>
      <trkpt lat="64.04567" lon="-19.35427">
        <ele>577.23</ele>
        <time>2015-07-08T17:05:26Z</time>
      </trkpt>
      <trkpt lat="64.04568" lon="-19.3543">
        <ele>577.26</ele>
        <time>2015-07-08T17:05:40Z</time>
      </trkpt>
      <trkpt lat="64.04577" lon="-19.3543">
        <ele>577.34</ele>
        <time>2015-07-08T17:05:44Z</time>
      </trkpt>
      <trkpt lat="64.04637" lon="-19.35407">
        <ele>577.2</ele>
        <time>2015-07-08T17:05:54Z</time>
      </trkpt>
      <trkpt lat="64.0466" lon="-19.35397">
        <ele>577.22</ele>
        <time>2015-07-08T17:05:57Z</time>
      </trkpt>
      <trkpt lat="64.04703" lon="-19.35418">
        <ele>577.28</ele>
        <time>2015-07-08T17:06:02Z</time>
      </trkpt>
      <trkpt lat="64.04837" lon="-19.35578">
        <ele>576.58</ele>
        <time>2015-07-08T17:06:17Z</time>
      </trkpt>
      <trkpt lat="64.04924" lon="-19.35673">
        <ele>573.38</ele>
        <time>2015-07-08T17:06:26Z</time>
      </trkpt>
      <trkpt lat="64.04989" lon="-19.3573">
        <ele>570.03</ele>
        <time>2015-07-08T17:06:35Z</time>
      </trkpt>
      <trkpt lat="64.05046" lon="-19.35759">
        <ele>566.59</ele>
        <time>2015-07-08T17:06:44Z</time>
      </trkpt>
      <trkpt lat="64.05083" lon="-19.35777">
        <ele>564.46</ele>
        <time>2015-07-08T17:06:50Z</time>
      </trkpt>
      <trkpt lat="64.05119" lon="-19.35775">
        <ele>562.57</ele>
        <time>2015-07-08T17:06:57Z</time>
      </trkpt>
      <trkpt lat="64.05184" lon="-19.35806">
        <ele>560.11</ele>
        <time>2015-07-08T17:07:08Z</time>
      </trkpt>
      <trkpt lat="64.05214" lon="-19.3582">
        <ele>560</ele>
        <time>2015-07-08T17:07:11Z</time>
      </trkpt>
      <trkpt lat="64.05262" lon="-19.35872">
        <ele>561.89</ele>
        <time>2015-07-08T17:07:16Z</time>
      </trkpt>
      <trkpt lat="64.05325" lon="-19.35878">
        <ele>565.36</ele>
        <time>2015-07-08T17:07:24Z</time>
      </trkpt>
      <trkpt lat="64.05359" lon="-19.35864">
        <ele>566.58</ele>
        <time>2015-07-08T17:07:29Z</time>
      </trkpt>
      <trkpt lat="64.05445" lon="-19.35911">
        <ele>566.36</ele>
        <time>2015-07-08T17:07:38Z</time>
      </trkpt>
      <trkpt lat="64.05531" lon="-19.35894">
        <ele>564.65</ele>
        <time>2015-07-08T17:07:48Z</time>
      </trkpt>
      <trkpt lat="64.05577" lon="-19.35908">
        <ele>563.65</ele>
        <time>2015-07-08T17:07:54Z</time>
      </trkpt>
      <trkpt lat="64.0561" lon="-19.35955">
        <ele>562.27</ele>
        <time>2015-07-08T17:07:58Z</time>
      </trkpt>
      <trkpt lat="64.05665" lon="-19.3605">
        <ele>558.42</ele>
        <time>2015-07-08T17:08:04Z</time>
      </trkpt>
      <trkpt lat="64.05708" lon="-19.36116">
        <ele>555.9</ele>
        <time>2015-07-08T17:08:09Z</time>
      </trkpt>
      <trkpt lat="64.05759" lon="-19.36223">
        <ele>553.18</ele>
        <time>2015-07-08T17:08:17Z</time>
      </trkpt>
      <trkpt lat="64.05829" lon="-19.36367">
        <ele>550.93</ele>
        <time>2015-07-08T17:08:28Z</time>
      </trkpt>
      <trkpt lat="64.05881" lon="-19.36545">
        <ele>549.91</ele>
        <time>2015-07-08T17:08:40Z</time>
      </trkpt>
      <trkpt lat="64.0591" lon="-19.36698">
        <ele>546.51</ele>
        <time>2015-07-08T17:08:47Z</time>
      </trkpt>
      <trkpt lat="64.05914" lon="-19.36745">
        <ele>545.37</ele>
        <time>2015-07-08T17:08:49Z</time>
      </trkpt>
      <trkpt lat="64.05921" lon="-19.36781">
        <ele>544.45</ele>
        <time>2015-07-08T17:08:51Z</time>
      </trkpt>
      <trkpt lat="64.05939" lon="-19.36814">
        <ele>543.22</ele>
        <time>2015-07-08T17:08:54Z</time>
      </trkpt>
      <trkpt lat="64.05964" lon="-19.3691">
        <ele>542.54</ele>
        <time>2015-07-08T17:09:01Z</time>
      </trkpt>
      <trkpt lat="64.05964" lon="-19.36951">
        <ele>542.6</ele>
        <time>2015-07-08T17:09:03Z</time>
      </trkpt>
      <trkpt lat="64.0598" lon="-19.37031">
        <ele>542.77</ele>
        <time>2015-07-08T17:09:08Z</time>
      </trkpt>
      <trkpt lat="64.05991" lon="-19.37061">
        <ele>542.89</ele>
        <time>2015-07-08T17:09:10Z</time>
      </trkpt>
      <trkpt lat="64.06024" lon="-19.37184">
        <ele>543.33</ele>
        <time>2015-07-08T17:09:18Z</time>
      </trkpt>
      <trkpt lat="64.06029" lon="-19.37208">
        <ele>543.19</ele>
        <time>2015-07-08T17:09:20Z</time>
      </trkpt>
      <trkpt lat="64.06035" lon="-19.37257">
        <ele>542.8</ele>
        <time>2015-07-08T17:09:24Z</time>
      </trkpt>
      <trkpt lat="64.06045" lon="-19.37295">
        <ele>542.13</ele>
        <time>2015-07-08T17:09:27Z</time>
      </trkpt>
      <trkpt lat="64.0609" lon="-19.37412">
        <ele>538.35</ele>
        <time>2015-07-08T17:09:35Z</time>
      </trkpt>
      <trkpt lat="64.06109" lon="-19.37459">
        <ele>535.21</ele>
        <time>2015-07-08T17:09:38Z</time>
      </trkpt>
      <trkpt lat="64.06148" lon="-19.37521">
        <ele>531.86</ele>
        <time>2015-07-08T17:09:43Z</time>
      </trkpt>
      <trkpt lat="64.06251" lon="-19.37629">
        <ele>528.99</ele>
        <time>2015-07-08T17:09:53Z</time>
      </trkpt>
      <trkpt lat="64.064" lon="-19.37823">
        <ele>528.57</ele>
        <time>2015-07-08T17:10:08Z</time>
      </trkpt>
      <trkpt lat="64.06501" lon="-19.38076">
        <ele>526.63</ele>
        <time>2015-07-08T17:10:21Z</time>
      </trkpt>
      <trkpt lat="64.06506" lon="-19.38098">
        <ele>526.47</ele>
        <time>2015-07-08T17:10:22Z</time>
      </trkpt>
      <trkpt lat="64.06516" lon="-19.38272">
        <ele>524.59</ele>
        <time>2015-07-08T17:10:30Z</time>
      </trkpt>
      <trkpt lat="64.06504" lon="-19.38369">
        <ele>521.6</ele>
        <time>2015-07-08T17:10:37Z</time>
      </trkpt>
      <trkpt lat="64.06487" lon="-19.38434">
        <ele>519.98</ele>
        <time>2015-07-08T17:10:46Z</time>
      </trkpt>
      <trkpt lat="64.06484" lon="-19.3844">
        <ele>520.13</ele>
        <time>2015-07-08T17:10:56Z</time>
      </trkpt>
      <trkpt lat="64.06469" lon="-19.385">
        <ele>519.87</ele>
        <time>2015-07-08T17:11:06Z</time>
      </trkpt>
      <trkpt lat="64.06469" lon="-19.38576">
        <ele>520.27</ele>
        <time>2015-07-08T17:11:15Z</time>
      </trkpt>
      <trkpt lat="64.06469" lon="-19.38588">
        <ele>520.19</ele>
        <time>2015-07-08T17:11:17Z</time>
      </trkpt>
      <trkpt lat="64.06463" lon="-19.38636">
        <ele>520.19</ele>
        <time>2015-07-08T17:11:22Z</time>
      </trkpt>
      <trkpt lat="64.06457" lon="-19.3866">
        <ele>520.34</ele>
        <time>2015-07-08T17:11:24Z</time>
      </trkpt>
      <trkpt lat="64.06454" lon="-19.38763">
        <ele>520.82</ele>
        <time>2015-07-08T17:11:30Z</time>
      </trkpt>
      <trkpt lat="64.06494" lon="-19.38993">
        <ele>520.45</ele>
        <time>2015-07-08T17:11:43Z</time>
      </trkpt>
      <trkpt lat="64.06559" lon="-19.39274">
        <ele>518.07</ele>
        <time>2015-07-08T17:12:00Z</time>
      </trkpt>
      <trkpt lat="64.06597" lon="-19.39489">
        <ele>517.18</ele>
        <time>2015-07-08T17:12:12Z</time>
      </trkpt>
      <trkpt lat="64.06599" lon="-19.39511">
        <ele>517.2</ele>
        <time>2015-07-08T17:12:13Z</time>
      </trkpt>
      <trkpt lat="64.06596" lon="-19.39651">
        <ele>517.24</ele>
        <time>2015-07-08T17:12:20Z</time>
      </trkpt>
      <trkpt lat="64.06605" lon="-19.39741">
        <ele>516.5</ele>
        <time>2015-07-08T17:12:25Z</time>
      </trkpt>
      <trkpt lat="64.06637" lon="-19.399">
        <ele>512.51</ele>
        <time>2015-07-08T17:12:34Z</time>
      </trkpt>
      <trkpt lat="64.06641" lon="-19.39914">
        <ele>512.51</ele>
        <time>2015-07-08T17:12:35Z</time>
      </trkpt>
      <trkpt lat="64.06654" lon="-19.3997">
        <ele>509.39</ele>
        <time>2015-07-08T17:12:39Z</time>
      </trkpt>
      <trkpt lat="64.06666" lon="-19.401">
        <ele>505.4</ele>
        <time>2015-07-08T17:12:47Z</time>
      </trkpt>
      <trkpt lat="64.06693" lon="-19.4028">
        <ele>502.4</ele>
        <time>2015-07-08T17:12:56Z</time>
      </trkpt>
      <trkpt lat="64.06717" lon="-19.40411">
        <ele>501.2</ele>
        <time>2015-07-08T17:13:03Z</time>
      </trkpt>
      <trkpt lat="64.06736" lon="-19.40457">
        <ele>500.8</ele>
        <time>2015-07-08T17:13:07Z</time>
      </trkpt>
      <trkpt lat="64.06773" lon="-19.40504">
        <ele>502.82</ele>
        <time>2015-07-08T17:13:16Z</time>
      </trkpt>
      <trkpt lat="64.06783" lon="-19.40535">
        <ele>503.18</ele>
        <time>2015-07-08T17:13:20Z</time>
      </trkpt>
      <trkpt lat="64.06788" lon="-19.40593">
        <ele>502.15</ele>
        <time>2015-07-08T17:13:25Z</time>
      </trkpt>
      <trkpt lat="64.06783" lon="-19.40675">
        <ele>501.18</ele>
        <time>2015-07-08T17:13:30Z</time>
      </trkpt>
      <trkpt lat="64.06779" lon="-19.40907">
        <ele>500.65</ele>
        <time>2015-07-08T17:13:43Z</time>
      </trkpt>
      <trkpt lat="64.06767" lon="-19.41142">
        <ele>499.74</ele>
        <time>2015-07-08T17:13:59Z</time>
      </trkpt>
      <trkpt lat="64.06765" lon="-19.41273">
        <ele>499.66</ele>
        <time>2015-07-08T17:14:07Z</time>
      </trkpt>
      <trkpt lat="64.06788" lon="-19.41421">
        <ele>502.85</ele>
        <time>2015-07-08T17:14:16Z</time>
      </trkpt>
      <trkpt lat="64.06845" lon="-19.41595">
        <ele>502.32</ele>
        <time>2015-07-08T17:14:27Z</time>
      </trkpt>
      <trkpt lat="64.06865" lon="-19.41645">
        <ele>501.36</ele>
        <time>2015-07-08T17:14:31Z</time>
      </trkpt>
      <trkpt lat="64.06874" lon="-19.4171">
        <ele>500.68</ele>
        <time>2015-07-08T17:14:36Z</time>
      </trkpt>
      <trkpt lat="64.06877" lon="-19.41848">
        <ele>500.71</ele>
        <time>2015-07-08T17:14:46Z</time>
      </trkpt>
      <trkpt lat="64.06887" lon="-19.41878">
        <ele>501.08</ele>
        <time>2015-07-08T17:14:50Z</time>
      </trkpt>
      <trkpt lat="64.06944" lon="-19.42008">
        <ele>500.73</ele>
        <time>2015-07-08T17:15:02Z</time>
      </trkpt>
      <trkpt lat="64.06947" lon="-19.4202">
        <ele>500.65</ele>
        <time>2015-07-08T17:15:03Z</time>
      </trkpt>
      <trkpt lat="64.06977" lon="-19.42075">
        <ele>500.74</ele>
        <time>2015-07-08T17:15:09Z</time>
      </trkpt>
      <trkpt lat="64.07015" lon="-19.42188">
        <ele>500.81</ele>
        <time>2015-07-08T17:15:20Z</time>
      </trkpt>
      <trkpt lat="64.07057" lon="-19.42274">
        <ele>498.56</ele>
        <time>2015-07-08T17:15:35Z</time>
      </trkpt>
      <trkpt lat="64.0707" lon="-19.42321">
        <ele>496.95</ele>
        <time>2015-07-08T17:15:42Z</time>
      </trkpt>
      <trkpt lat="64.07073" lon="-19.42368">
        <ele>496.42</ele>
        <time>2015-07-08T17:15:46Z</time>
      </trkpt>
      <trkpt lat="64.07054" lon="-19.42565">
        <ele>496.94</ele>
        <time>2015-07-08T17:15:56Z</time>
      </trkpt>
      <trkpt lat="64.07049" lon="-19.42799">
        <ele>498.59</ele>
        <time>2015-07-08T17:16:07Z</time>
      </trkpt>
      <trkpt lat="64.0701" lon="-19.43025">
        <ele>499.85</ele>
        <time>2015-07-08T17:16:16Z</time>
      </trkpt>
      <trkpt lat="64.06951" lon="-19.4328">
        <ele>501.98</ele>
        <time>2015-07-08T17:16:27Z</time>
      </trkpt>
      <trkpt lat="64.06943" lon="-19.43344">
        <ele>502.5</ele>
        <time>2015-07-08T17:16:30Z</time>
      </trkpt>
      <trkpt lat="64.06942" lon="-19.43429">
        <ele>502.85</ele>
        <time>2015-07-08T17:16:34Z</time>
      </trkpt>
      <trkpt lat="64.06951" lon="-19.43712">
        <ele>503.7</ele>
        <time>2015-07-08T17:16:46Z</time>
      </trkpt>
      <trkpt lat="64.06951" lon="-19.43945">
        <ele>505.49</ele>
        <time>2015-07-08T17:16:57Z</time>
      </trkpt>
      <trkpt lat="64.06951" lon="-19.43965">
        <ele>505.71</ele>
        <time>2015-07-08T17:16:58Z</time>
      </trkpt>
      <trkpt lat="64.06946" lon="-19.44027">
        <ele>506.86</ele>
        <time>2015-07-08T17:17:02Z</time>
      </trkpt>
      <trkpt lat="64.06944" lon="-19.44161">
        <ele>508.09</ele>
        <time>2015-07-08T17:17:11Z</time>
      </trkpt>
      <trkpt lat="64.06923" lon="-19.44382">
        <ele>508.51</ele>
        <time>2015-07-08T17:17:22Z</time>
      </trkpt>
      <trkpt lat="64.06912" lon="-19.44483">
        <ele>508.75</ele>
        <time>2015-07-08T17:17:27Z</time>
      </trkpt>
      <trkpt lat="64.06912" lon="-19.44572">
        <ele>509.31</ele>
        <time>2015-07-08T17:17:32Z</time>
      </trkpt>
      <trkpt lat="64.06906" lon="-19.44635">
        <ele>509.89</ele>
        <time>2015-07-08T17:17:36Z</time>
      </trkpt>
      <trkpt lat="64.06872" lon="-19.44854">
        <ele>510.19</ele>
        <time>2015-07-08T17:17:44Z</time>
      </trkpt>
      <trkpt lat="64.0684" lon="-19.45133">
        <ele>510.03</ele>
        <time>2015-07-08T17:17:54Z</time>
      </trkpt>
      <trkpt lat="64.06815" lon="-19.45462">
        <ele>510.73</ele>
        <time>2015-07-08T17:18:03Z</time>
      </trkpt>
      <trkpt lat="64.06808" lon="-19.45553">
        <ele>511.04</ele>
        <time>2015-07-08T17:18:06Z</time>
      </trkpt>
      <trkpt lat="64.06812" lon="-19.45639">
        <ele>511.51</ele>
        <time>2015-07-08T17:18:10Z</time>
      </trkpt>
      <trkpt lat="64.06831" lon="-19.45827">
        <ele>510.38</ele>
        <time>2015-07-08T17:18:19Z</time>
      </trkpt>
      <trkpt lat="64.06842" lon="-19.459">
        <ele>507.75</ele>
        <time>2015-07-08T17:18:23Z</time>
      </trkpt>
      <trkpt lat="64.06857" lon="-19.45985">
        <ele>504.35</ele>
        <time>2015-07-08T17:18:28Z</time>
      </trkpt>
      <trkpt lat="64.06863" lon="-19.46017">
        <ele>503.4</ele>
        <time>2015-07-08T17:18:30Z</time>
      </trkpt>
      <trkpt lat="64.06897" lon="-19.46122">
        <ele>499.79</ele>
        <time>2015-07-08T17:18:40Z</time>
      </trkpt>
      <trkpt lat="64.06955" lon="-19.46283">
        <ele>497.2</ele>
        <time>2015-07-08T17:18:50Z</time>
      </trkpt>
      <trkpt lat="64.07" lon="-19.4641">
        <ele>495.43</ele>
        <time>2015-07-08T17:18:57Z</time>
      </trkpt>
      <trkpt lat="64.07058" lon="-19.46472">
        <ele>493.47</ele>
        <time>2015-07-08T17:19:04Z</time>
      </trkpt>
      <trkpt lat="64.07068" lon="-19.46471">
        <ele>493.23</ele>
        <time>2015-07-08T17:19:05Z</time>
      </trkpt>
      <trkpt lat="64.07095" lon="-19.46466">
        <ele>492.33</ele>
        <time>2015-07-08T17:19:08Z</time>
      </trkpt>
      <trkpt lat="64.07134" lon="-19.46479">
        <ele>491.47</ele>
        <time>2015-07-08T17:19:12Z</time>
      </trkpt>
      <trkpt lat="64.07171" lon="-19.46556">
        <ele>491.28</ele>
        <time>2015-07-08T17:19:18Z</time>
      </trkpt>
      <trkpt lat="64.07228" lon="-19.46759">
        <ele>487.9</ele>
        <time>2015-07-08T17:19:29Z</time>
      </trkpt>
      <trkpt lat="64.07272" lon="-19.46969">
        <ele>484.84</ele>
        <time>2015-07-08T17:19:40Z</time>
      </trkpt>
      <trkpt lat="64.07299" lon="-19.47057">
        <ele>484.31</ele>
        <time>2015-07-08T17:19:45Z</time>
      </trkpt>
      <trkpt lat="64.07331" lon="-19.47266">
        <ele>481.82</ele>
        <time>2015-07-08T17:19:56Z</time>
      </trkpt>
      <trkpt lat="64.07337" lon="-19.47298">
        <ele>481.57</ele>
        <time>2015-07-08T17:19:58Z</time>
      </trkpt>
      <trkpt lat="64.07342" lon="-19.47467">
        <ele>479.84</ele>
        <time>2015-07-08T17:20:06Z</time>
      </trkpt>
      <trkpt lat="64.07357" lon="-19.47693">
        <ele>477.13</ele>
        <time>2015-07-08T17:20:16Z</time>
      </trkpt>
      <trkpt lat="64.0738" lon="-19.47791">
        <ele>476.17</ele>
        <time>2015-07-08T17:20:21Z</time>
      </trkpt>
      <trkpt lat="64.07478" lon="-19.48104">
        <ele>474.97</ele>
        <time>2015-07-08T17:20:37Z</time>
      </trkpt>
      <trkpt lat="64.07537" lon="-19.4838">
        <ele>474.01</ele>
        <time>2015-07-08T17:20:50Z</time>
      </trkpt>
      <trkpt lat="64.0758" lon="-19.48662">
        <ele>472.84</ele>
        <time>2015-07-08T17:21:02Z</time>
      </trkpt>
      <trkpt lat="64.07603" lon="-19.48864">
        <ele>471.63</ele>
        <time>2015-07-08T17:21:14Z</time>
      </trkpt>
      <trkpt lat="64.07633" lon="-19.49022">
        <ele>470.94</ele>
        <time>2015-07-08T17:21:24Z</time>
      </trkpt>
      <trkpt lat="64.07634" lon="-19.49078">
        <ele>470.31</ele>
        <time>2015-07-08T17:21:28Z</time>
      </trkpt>
      <trkpt lat="64.07629" lon="-19.4912">
        <ele>469.2</ele>
        <time>2015-07-08T17:21:36Z</time>
      </trkpt>
      <trkpt lat="64.0763" lon="-19.49115">
        <ele>468.73</ele>
        <time>2015-07-08T17:22:20Z</time>
      </trkpt>
      <trkpt lat="64.07632" lon="-19.49126">
        <ele>468.26</ele>
        <time>2015-07-08T17:23:03Z</time>
      </trkpt>
      <trkpt lat="64.07628" lon="-19.49145">
        <ele>468.09</ele>
        <time>2015-07-08T17:23:19Z</time>
      </trkpt>
      <trkpt lat="64.07631" lon="-19.49249">
        <ele>467.82</ele>
        <time>2015-07-08T17:23:27Z</time>
      </trkpt>
      <trkpt lat="64.07643" lon="-19.49383">
        <ele>466.17</ele>
        <time>2015-07-08T17:23:38Z</time>
      </trkpt>
      <trkpt lat="64.07644" lon="-19.49385">
        <ele>465.45</ele>
        <time>2015-07-08T17:23:50Z</time>
      </trkpt>
      <trkpt lat="64.07642" lon="-19.49387">
        <ele>465.93</ele>
        <time>2015-07-08T17:24:50Z</time>
      </trkpt>
      <trkpt lat="64.07642" lon="-19.49385">
        <ele>465.59</ele>
        <time>2015-07-08T17:25:45Z</time>
      </trkpt>
      <trkpt lat="64.07643" lon="-19.49386">
        <ele>465.56</ele>
        <time>2015-07-08T17:26:34Z</time>
      </trkpt>
      <trkpt lat="64.07647" lon="-19.494">
        <ele>465.68</ele>
        <time>2015-07-08T17:26:37Z</time>
      </trkpt>
      <trkpt lat="64.07668" lon="-19.49521">
        <ele>465.78</ele>
        <time>2015-07-08T17:26:46Z</time>
      </trkpt>
      <trkpt lat="64.07711" lon="-19.49776">
        <ele>466.67</ele>
        <time>2015-07-08T17:27:00Z</time>
      </trkpt>
      <trkpt lat="64.07733" lon="-19.49897">
        <ele>466.18</ele>
        <time>2015-07-08T17:27:07Z</time>
      </trkpt>
      <trkpt lat="64.07735" lon="-19.49925">
        <ele>465.56</ele>
        <time>2015-07-08T17:27:14Z</time>
      </trkpt>
      <trkpt lat="64.07734" lon="-19.49922">
        <ele>464.91</ele>
        <time>2015-07-08T17:27:26Z</time>
      </trkpt>
      <trkpt lat="64.07733" lon="-19.49938">
        <ele>464.94</ele>
        <time>2015-07-08T17:27:29Z</time>
      </trkpt>
      <trkpt lat="64.07729" lon="-19.49957">
        <ele>465</ele>
        <time>2015-07-08T17:27:31Z</time>
      </trkpt>
      <trkpt lat="64.07713" lon="-19.49999">
        <ele>465.06</ele>
        <time>2015-07-08T17:27:35Z</time>
      </trkpt>
      <trkpt lat="64.07634" lon="-19.50142">
        <ele>464.65</ele>
        <time>2015-07-08T17:27:46Z</time>
      </trkpt>
      <trkpt lat="64.07581" lon="-19.5027">
        <ele>466.31</ele>
        <time>2015-07-08T17:27:56Z</time>
      </trkpt>
      <trkpt lat="64.07554" lon="-19.50457">
        <ele>467.33</ele>
        <time>2015-07-08T17:28:06Z</time>
      </trkpt>
      <trkpt lat="64.07554" lon="-19.50507">
        <ele>467.58</ele>
        <time>2015-07-08T17:28:09Z</time>
      </trkpt>
      <trkpt lat="64.07538" lon="-19.50598">
        <ele>467.63</ele>
        <time>2015-07-08T17:28:14Z</time>
      </trkpt>
      <trkpt lat="64.07492" lon="-19.50778">
        <ele>465.11</ele>
        <time>2015-07-08T17:28:23Z</time>
      </trkpt>
      <trkpt lat="64.07433" lon="-19.50999">
        <ele>462.45</ele>
        <time>2015-07-08T17:28:34Z</time>
      </trkpt>
      <trkpt lat="64.07395" lon="-19.51255">
        <ele>462.29</ele>
        <time>2015-07-08T17:28:47Z</time>
      </trkpt>
      <trkpt lat="64.07375" lon="-19.51515">
        <ele>460.5</ele>
        <time>2015-07-08T17:29:01Z</time>
      </trkpt>
      <trkpt lat="64.07369" lon="-19.51735">
        <ele>458.21</ele>
        <time>2015-07-08T17:29:11Z</time>
      </trkpt>
      <trkpt lat="64.0735" lon="-19.51946">
        <ele>456.8</ele>
        <time>2015-07-08T17:29:22Z</time>
      </trkpt>
      <trkpt lat="64.07357" lon="-19.52218">
        <ele>453.91</ele>
        <time>2015-07-08T17:29:33Z</time>
      </trkpt>
      <trkpt lat="64.07361" lon="-19.52453">
        <ele>454.19</ele>
        <time>2015-07-08T17:29:45Z</time>
      </trkpt>
      <trkpt lat="64.07359" lon="-19.52494">
        <ele>453.13</ele>
        <time>2015-07-08T17:29:53Z</time>
      </trkpt>
      <trkpt lat="64.07359" lon="-19.52494">
        <ele>452.37</ele>
        <time>2015-07-08T17:30:50Z</time>
      </trkpt>
      <trkpt lat="64.07358" lon="-19.52496">
        <ele>453.19</ele>
        <time>2015-07-08T17:31:56Z</time>
      </trkpt>
      <trkpt lat="64.07358" lon="-19.52494">
        <ele>452.92</ele>
        <time>2015-07-08T17:32:39Z</time>
      </trkpt>
      <trkpt lat="64.07361" lon="-19.52497">
        <ele>452.87</ele>
        <time>2015-07-08T17:32:53Z</time>
      </trkpt>
      <trkpt lat="64.07363" lon="-19.52639">
        <ele>452.88</ele>
        <time>2015-07-08T17:33:02Z</time>
      </trkpt>
      <trkpt lat="64.07368" lon="-19.52917">
        <ele>452.37</ele>
        <time>2015-07-08T17:33:15Z</time>
      </trkpt>
      <trkpt lat="64.07368" lon="-19.52918">
        <ele>451.93</ele>
        <time>2015-07-08T17:33:18Z</time>
      </trkpt>
      <trkpt lat="64.07367" lon="-19.52898">
        <ele>451.73</ele>
        <time>2015-07-08T17:33:21Z</time>
      </trkpt>
      <trkpt lat="64.07367" lon="-19.52859">
        <ele>451.84</ele>
        <time>2015-07-08T17:33:34Z</time>
      </trkpt>
      <trkpt lat="64.0737" lon="-19.52861">
        <ele>451.52</ele>
        <time>2015-07-08T17:34:24Z</time>
      </trkpt>
      <trkpt lat="64.0737" lon="-19.52859">
        <ele>452.13</ele>
        <time>2015-07-08T17:35:10Z</time>
      </trkpt>
      <trkpt lat="64.0737" lon="-19.52859">
        <ele>452.57</ele>
        <time>2015-07-08T17:35:32Z</time>
      </trkpt>
      <trkpt lat="64.07371" lon="-19.52897">
        <ele>452.69</ele>
        <time>2015-07-08T17:35:37Z</time>
      </trkpt>
      <trkpt lat="64.07383" lon="-19.53117">
        <ele>452.63</ele>
        <time>2015-07-08T17:35:49Z</time>
      </trkpt>
      <trkpt lat="64.07395" lon="-19.53405">
        <ele>452.07</ele>
        <time>2015-07-08T17:36:03Z</time>
      </trkpt>
      <trkpt lat="64.07417" lon="-19.5364">
        <ele>448.89</ele>
        <time>2015-07-08T17:36:14Z</time>
      </trkpt>
      <trkpt lat="64.0744" lon="-19.53768">
        <ele>447.1</ele>
        <time>2015-07-08T17:36:20Z</time>
      </trkpt>
      <trkpt lat="64.07495" lon="-19.53839">
        <ele>445.62</ele>
        <time>2015-07-08T17:36:27Z</time>
      </trkpt>
      <trkpt lat="64.07638" lon="-19.53843">
        <ele>443.42</ele>
        <time>2015-07-08T17:36:42Z</time>
      </trkpt>
      <trkpt lat="64.07722" lon="-19.53827">
        <ele>440.61</ele>
        <time>2015-07-08T17:36:54Z</time>
      </trkpt>
      <trkpt lat="64.07754" lon="-19.53824">
        <ele>437.5</ele>
        <time>2015-07-08T17:37:00Z</time>
      </trkpt>
      <trkpt lat="64.07809" lon="-19.53837">
        <ele>433.86</ele>
        <time>2015-07-08T17:37:06Z</time>
      </trkpt>
      <trkpt lat="64.07897" lon="-19.53884">
        <ele>430.81</ele>
        <time>2015-07-08T17:37:16Z</time>
      </trkpt>
      <trkpt lat="64.07977" lon="-19.53998">
        <ele>430.26</ele>
        <time>2015-07-08T17:37:27Z</time>
      </trkpt>
      <trkpt lat="64.08029" lon="-19.54121">
        <ele>429.06</ele>
        <time>2015-07-08T17:37:37Z</time>
      </trkpt>
      <trkpt lat="64.08073" lon="-19.54245">
        <ele>425.69</ele>
        <time>2015-07-08T17:37:44Z</time>
      </trkpt>
      <trkpt lat="64.08147" lon="-19.54467">
        <ele>423.81</ele>
        <time>2015-07-08T17:37:55Z</time>
      </trkpt>
      <trkpt lat="64.08159" lon="-19.54535">
        <ele>423.4</ele>
        <time>2015-07-08T17:37:58Z</time>
      </trkpt>
      <trkpt lat="64.08166" lon="-19.54827">
        <ele>420.64</ele>
        <time>2015-07-08T17:38:10Z</time>
      </trkpt>
      <trkpt lat="64.08161" lon="-19.55067">
        <ele>417.57</ele>
        <time>2015-07-08T17:38:19Z</time>
      </trkpt>
      <trkpt lat="64.08162" lon="-19.55372">
        <ele>414.38</ele>
        <time>2015-07-08T17:38:31Z</time>
      </trkpt>
      <trkpt lat="64.08158" lon="-19.55523">
        <ele>411.02</ele>
        <time>2015-07-08T17:38:38Z</time>
      </trkpt>
      <trkpt lat="64.08157" lon="-19.55562">
        <ele>409.91</ele>
        <time>2015-07-08T17:38:40Z</time>
      </trkpt>
      <trkpt lat="64.08171" lon="-19.55625">
        <ele>406.81</ele>
        <time>2015-07-08T17:38:46Z</time>
      </trkpt>
      <trkpt lat="64.08181" lon="-19.55643">
        <ele>405.4</ele>
        <time>2015-07-08T17:38:52Z</time>
      </trkpt>
      <trkpt lat="64.08181" lon="-19.55671">
        <ele>403.83</ele>
        <time>2015-07-08T17:39:04Z</time>
      </trkpt>
      <trkpt lat="64.08179" lon="-19.55665">
        <ele>402.85</ele>
        <time>2015-07-08T17:39:38Z</time>
      </trkpt>
      <trkpt lat="64.08177" lon="-19.5566">
        <ele>402.9</ele>
        <time>2015-07-08T17:40:25Z</time>
      </trkpt>
      <trkpt lat="64.08178" lon="-19.55658">
        <ele>402.73</ele>
        <time>2015-07-08T17:41:11Z</time>
      </trkpt>
      <trkpt lat="64.08178" lon="-19.55664">
        <ele>403.05</ele>
        <time>2015-07-08T17:41:50Z</time>
      </trkpt>
      <trkpt lat="64.08179" lon="-19.55672">
        <ele>403.05</ele>
        <time>2015-07-08T17:41:52Z</time>
      </trkpt>
      <trkpt lat="64.08171" lon="-19.55782">
        <ele>401.15</ele>
        <time>2015-07-08T17:42:03Z</time>
      </trkpt>
      <trkpt lat="64.08164" lon="-19.55862">
        <ele>398.14</ele>
        <time>2015-07-08T17:42:08Z</time>
      </trkpt>
      <trkpt lat="64.08159" lon="-19.55934">
        <ele>394.63</ele>
        <time>2015-07-08T17:42:12Z</time>
      </trkpt>
      <trkpt lat="64.08158" lon="-19.55997">
        <ele>390.76</ele>
        <time>2015-07-08T17:42:16Z</time>
      </trkpt>
      <trkpt lat="64.0816" lon="-19.56023">
        <ele>388.68</ele>
        <time>2015-07-08T17:42:18Z</time>
      </trkpt>
      <trkpt lat="64.08174" lon="-19.5609">
        <ele>383.32</ele>
        <time>2015-07-08T17:42:23Z</time>
      </trkpt>
      <trkpt lat="64.08198" lon="-19.5613">
        <ele>380.08</ele>
        <time>2015-07-08T17:42:27Z</time>
      </trkpt>
      <trkpt lat="64.08227" lon="-19.56141">
        <ele>376.82</ele>
        <time>2015-07-08T17:42:31Z</time>
      </trkpt>
      <trkpt lat="64.08248" lon="-19.56135">
        <ele>374.69</ele>
        <time>2015-07-08T17:42:34Z</time>
      </trkpt>
      <trkpt lat="64.08302" lon="-19.56072">
        <ele>371.4</ele>
        <time>2015-07-08T17:42:43Z</time>
      </trkpt>
      <trkpt lat="64.08335" lon="-19.56058">
        <ele>370.75</ele>
        <time>2015-07-08T17:42:47Z</time>
      </trkpt>
      <trkpt lat="64.08398" lon="-19.56062">
        <ele>370.11</ele>
        <time>2015-07-08T17:42:54Z</time>
      </trkpt>
      <trkpt lat="64.08462" lon="-19.56161">
        <ele>369.36</ele>
        <time>2015-07-08T17:43:03Z</time>
      </trkpt>
      <trkpt lat="64.08473" lon="-19.5625">
        <ele>368.96</ele>
        <time>2015-07-08T17:43:07Z</time>
      </trkpt>
      <trkpt lat="64.08472" lon="-19.56672">
        <ele>366.27</ele>
        <time>2015-07-08T17:43:25Z</time>
      </trkpt>
      <trkpt lat="64.08472" lon="-19.56991">
        <ele>364.96</ele>
        <time>2015-07-08T17:43:40Z</time>
      </trkpt>
      <trkpt lat="64.08449" lon="-19.57204">
        <ele>364.31</ele>
        <time>2015-07-08T17:43:50Z</time>
      </trkpt>
      <trkpt lat="64.08404" lon="-19.57496">
        <ele>363.87</ele>
        <time>2015-07-08T17:44:03Z</time>
      </trkpt>
      <trkpt lat="64.08334" lon="-19.57785">
        <ele>363.94</ele>
        <time>2015-07-08T17:44:15Z</time>
      </trkpt>
      <trkpt lat="64.08262" lon="-19.57914">
        <ele>364.15</ele>
        <time>2015-07-08T17:44:24Z</time>
      </trkpt>
      <trkpt lat="64.08136" lon="-19.58107">
        <ele>364.13</ele>
        <time>2015-07-08T17:44:40Z</time>
      </trkpt>
      <trkpt lat="64.08109" lon="-19.58228">
        <ele>364.31</ele>
        <time>2015-07-08T17:44:46Z</time>
      </trkpt>
      <trkpt lat="64.08117" lon="-19.58585">
        <ele>364.43</ele>
        <time>2015-07-08T17:45:00Z</time>
      </trkpt>
      <trkpt lat="64.08122" lon="-19.58787">
        <ele>364.48</ele>
        <time>2015-07-08T17:45:10Z</time>
      </trkpt>
      <trkpt lat="64.08153" lon="-19.59023">
        <ele>366.36</ele>
        <time>2015-07-08T17:45:23Z</time>
      </trkpt>
      <trkpt lat="64.08203" lon="-19.59267">
        <ele>366.23</ele>
        <time>2015-07-08T17:45:37Z</time>
      </trkpt>
      <trkpt lat="64.08235" lon="-19.59467">
        <ele>364.39</ele>
        <time>2015-07-08T17:45:51Z</time>
      </trkpt>
      <trkpt lat="64.08239" lon="-19.59671">
        <ele>362.15</ele>
        <time>2015-07-08T17:46:03Z</time>
      </trkpt>
      <trkpt lat="64.08252" lon="-19.59875">
        <ele>359.01</ele>
        <time>2015-07-08T17:46:14Z</time>
      </trkpt>
      <trkpt lat="64.08265" lon="-19.60053">
        <ele>357.1</ele>
        <time>2015-07-08T17:46:24Z</time>
      </trkpt>
      <trkpt lat="64.08279" lon="-19.60109">
        <ele>356.16</ele>
        <time>2015-07-08T17:46:28Z</time>
      </trkpt>
      <trkpt lat="64.08342" lon="-19.60303">
        <ele>354.29</ele>
        <time>2015-07-08T17:46:42Z</time>
      </trkpt>
      <trkpt lat="64.08374" lon="-19.60394">
        <ele>352.44</ele>
        <time>2015-07-08T17:46:51Z</time>
      </trkpt>
      <trkpt lat="64.08391" lon="-19.60528">
        <ele>348.6</ele>
        <time>2015-07-08T17:46:59Z</time>
      </trkpt>
      <trkpt lat="64.0842" lon="-19.6078">
        <ele>345.59</ele>
        <time>2015-07-08T17:47:12Z</time>
      </trkpt>
      <trkpt lat="64.08435" lon="-19.60956">
        <ele>344.1</ele>
        <time>2015-07-08T17:47:23Z</time>
      </trkpt>
      <trkpt lat="64.08462" lon="-19.61114">
        <ele>341.84</ele>
        <time>2015-07-08T17:47:38Z</time>
      </trkpt>
      <trkpt lat="64.08476" lon="-19.61233">
        <ele>338.7</ele>
        <time>2015-07-08T17:47:49Z</time>
      </trkpt>
      <trkpt lat="64.08487" lon="-19.61333">
        <ele>335.27</ele>
        <time>2015-07-08T17:47:56Z</time>
      </trkpt>
      <trkpt lat="64.08503" lon="-19.61449">
        <ele>331.97</ele>
        <time>2015-07-08T17:48:04Z</time>
      </trkpt>
      <trkpt lat="64.0851" lon="-19.61489">
        <ele>331.2</ele>
        <time>2015-07-08T17:48:07Z</time>
      </trkpt>
      <trkpt lat="64.08514" lon="-19.61545">
        <ele>330.01</ele>
        <time>2015-07-08T17:48:11Z</time>
      </trkpt>
      <trkpt lat="64.08515" lon="-19.61719">
        <ele>326.49</ele>
        <time>2015-07-08T17:48:25Z</time>
      </trkpt>
      <trkpt lat="64.08528" lon="-19.6183">
        <ele>323.32</ele>
        <time>2015-07-08T17:48:35Z</time>
      </trkpt>
      <trkpt lat="64.08533" lon="-19.61862">
        <ele>320.77</ele>
        <time>2015-07-08T17:48:46Z</time>
      </trkpt>
      <trkpt lat="64.08533" lon="-19.61856">
        <ele>320.45</ele>
        <time>2015-07-08T17:49:22Z</time>
      </trkpt>
      <trkpt lat="64.08534" lon="-19.61854">
        <ele>319.69</ele>
        <time>2015-07-08T17:50:40Z</time>
      </trkpt>
      <trkpt lat="64.08535" lon="-19.61853">
        <ele>319.63</ele>
        <time>2015-07-08T17:51:41Z</time>
      </trkpt>
      <trkpt lat="64.08533" lon="-19.61853">
        <ele>320.38</ele>
        <time>2015-07-08T17:52:25Z</time>
      </trkpt>
      <trkpt lat="64.08533" lon="-19.61857">
        <ele>320.47</ele>
        <time>2015-07-08T17:52:33Z</time>
      </trkpt>
      <trkpt lat="64.08532" lon="-19.61863">
        <ele>320.49</ele>
        <time>2015-07-08T17:52:35Z</time>
      </trkpt>
      <trkpt lat="64.08533" lon="-19.61892">
        <ele>320.62</ele>
        <time>2015-07-08T17:52:40Z</time>
      </trkpt>
      <trkpt lat="64.08556" lon="-19.62097">
        <ele>319.7</ele>
        <time>2015-07-08T17:52:57Z</time>
      </trkpt>
      <trkpt lat="64.08571" lon="-19.623">
        <ele>318.79</ele>
        <time>2015-07-08T17:53:10Z</time>
      </trkpt>
      <trkpt lat="64.08571" lon="-19.62504">
        <ele>317.15</ele>
        <time>2015-07-08T17:53:22Z</time>
      </trkpt>
      <trkpt lat="64.08578" lon="-19.62696">
        <ele>314.13</ele>
        <time>2015-07-08T17:53:32Z</time>
      </trkpt>
      <trkpt lat="64.08577" lon="-19.62715">
        <ele>313.9</ele>
        <time>2015-07-08T17:53:33Z</time>
      </trkpt>
      <trkpt lat="64.08585" lon="-19.62807">
        <ele>313.09</ele>
        <time>2015-07-08T17:53:38Z</time>
      </trkpt>
      <trkpt lat="64.08637" lon="-19.62949">
        <ele>312.03</ele>
        <time>2015-07-08T17:53:49Z</time>
      </trkpt>
      <trkpt lat="64.08695" lon="-19.63085">
        <ele>308.83</ele>
        <time>2015-07-08T17:53:59Z</time>
      </trkpt>
      <trkpt lat="64.08702" lon="-19.6316">
        <ele>307.66</ele>
        <time>2015-07-08T17:54:04Z</time>
      </trkpt>
      <trkpt lat="64.08698" lon="-19.63327">
        <ele>304.27</ele>
        <time>2015-07-08T17:54:16Z</time>
      </trkpt>
      <trkpt lat="64.08696" lon="-19.63428">
        <ele>302.78</ele>
        <time>2015-07-08T17:54:22Z</time>
      </trkpt>
      <trkpt lat="64.08707" lon="-19.63488">
        <ele>301.97</ele>
        <time>2015-07-08T17:54:26Z</time>
      </trkpt>
      <trkpt lat="64.08769" lon="-19.63679">
        <ele>298.48</ele>
        <time>2015-07-08T17:54:38Z</time>
      </trkpt>
      <trkpt lat="64.08798" lon="-19.63753">
        <ele>297.13</ele>
        <time>2015-07-08T17:54:43Z</time>
      </trkpt>
      <trkpt lat="64.08812" lon="-19.63843">
        <ele>295.72</ele>
        <time>2015-07-08T17:54:48Z</time>
      </trkpt>
      <trkpt lat="64.08849" lon="-19.64115">
        <ele>292.47</ele>
        <time>2015-07-08T17:55:00Z</time>
      </trkpt>
      <trkpt lat="64.08887" lon="-19.64238">
        <ele>291.08</ele>
        <time>2015-07-08T17:55:07Z</time>
      </trkpt>
      <trkpt lat="64.08904" lon="-19.64337">
        <ele>290.1</ele>
        <time>2015-07-08T17:55:13Z</time>
      </trkpt>
      <trkpt lat="64.08901" lon="-19.64427">
        <ele>287.68</ele>
        <time>2015-07-08T17:55:23Z</time>
      </trkpt>
      <trkpt lat="64.08897" lon="-19.64476">
        <ele>286.5</ele>
        <time>2015-07-08T17:55:26Z</time>
      </trkpt>
      <trkpt lat="64.08875" lon="-19.64581">
        <ele>282.91</ele>
        <time>2015-07-08T17:55:33Z</time>
      </trkpt>
      <trkpt lat="64.08865" lon="-19.64654">
        <ele>281.46</ele>
        <time>2015-07-08T17:55:37Z</time>
      </trkpt>
      <trkpt lat="64.08877" lon="-19.64852">
        <ele>280.52</ele>
        <time>2015-07-08T17:55:47Z</time>
      </trkpt>
      <trkpt lat="64.08879" lon="-19.6487">
        <ele>280.48</ele>
        <time>2015-07-08T17:55:48Z</time>
      </trkpt>
      <trkpt lat="64.08905" lon="-19.64992">
        <ele>279.54</ele>
        <time>2015-07-08T17:55:55Z</time>
      </trkpt>
      <trkpt lat="64.08916" lon="-19.65197">
        <ele>276.15</ele>
        <time>2015-07-08T17:56:03Z</time>
      </trkpt>
      <trkpt lat="64.08936" lon="-19.65473">
        <ele>273.98</ele>
        <time>2015-07-08T17:56:15Z</time>
      </trkpt>
      <trkpt lat="64.08936" lon="-19.65489">
        <ele>273.9</ele>
        <time>2015-07-08T17:56:16Z</time>
      </trkpt>
      <trkpt lat="64.08923" lon="-19.65738">
        <ele>273.42</ele>
        <time>2015-07-08T17:56:28Z</time>
      </trkpt>
      <trkpt lat="64.0892" lon="-19.65802">
        <ele>273.33</ele>
        <time>2015-07-08T17:56:31Z</time>
      </trkpt>
      <trkpt lat="64.08894" lon="-19.65997">
        <ele>273.11</ele>
        <time>2015-07-08T17:56:40Z</time>
      </trkpt>
      <trkpt lat="64.08856" lon="-19.66259">
        <ele>272.26</ele>
        <time>2015-07-08T17:56:51Z</time>
      </trkpt>
      <trkpt lat="64.08837" lon="-19.66506">
        <ele>272.68</ele>
        <time>2015-07-08T17:57:01Z</time>
      </trkpt>
      <trkpt lat="64.08831" lon="-19.66682">
        <ele>272.4</ele>
        <time>2015-07-08T17:57:08Z</time>
      </trkpt>
      <trkpt lat="64.08797" lon="-19.66861">
        <ele>272.03</ele>
        <time>2015-07-08T17:57:16Z</time>
      </trkpt>
      <trkpt lat="64.08788" lon="-19.67108">
        <ele>271.56</ele>
        <time>2015-07-08T17:57:26Z</time>
      </trkpt>
      <trkpt lat="64.08764" lon="-19.67368">
        <ele>271.58</ele>
        <time>2015-07-08T17:57:36Z</time>
      </trkpt>
      <trkpt lat="64.08739" lon="-19.67554">
        <ele>270.74</ele>
        <time>2015-07-08T17:57:45Z</time>
      </trkpt>
      <trkpt lat="64.08731" lon="-19.67746">
        <ele>269.22</ele>
        <time>2015-07-08T17:57:56Z</time>
      </trkpt>
      <trkpt lat="64.08701" lon="-19.67906">
        <ele>266.03</ele>
        <time>2015-07-08T17:58:07Z</time>
      </trkpt>
      <trkpt lat="64.0869" lon="-19.68047">
        <ele>262.78</ele>
        <time>2015-07-08T17:58:15Z</time>
      </trkpt>
      <trkpt lat="64.08695" lon="-19.68201">
        <ele>259.69</ele>
        <time>2015-07-08T17:58:22Z</time>
      </trkpt>
      <trkpt lat="64.08709" lon="-19.68453">
        <ele>256.43</ele>
        <time>2015-07-08T17:58:33Z</time>
      </trkpt>
      <trkpt lat="64.08715" lon="-19.68539">
        <ele>255.53</ele>
        <time>2015-07-08T17:58:37Z</time>
      </trkpt>
      <trkpt lat="64.08715" lon="-19.68772">
        <ele>252.22</ele>
        <time>2015-07-08T17:58:48Z</time>
      </trkpt>
      <trkpt lat="64.08724" lon="-19.68908">
        <ele>249</ele>
        <time>2015-07-08T17:58:53Z</time>
      </trkpt>
      <trkpt lat="64.08736" lon="-19.69123">
        <ele>245.87</ele>
        <time>2015-07-08T17:59:00Z</time>
      </trkpt>
      <trkpt lat="64.08738" lon="-19.69634">
        <ele>243.04</ele>
        <time>2015-07-08T17:59:15Z</time>
      </trkpt>
      <trkpt lat="64.08752" lon="-19.70081">
        <ele>242.49</ele>
        <time>2015-07-08T17:59:29Z</time>
      </trkpt>
      <trkpt lat="64.08742" lon="-19.70512">
        <ele>240.87</ele>
        <time>2015-07-08T17:59:43Z</time>
      </trkpt>
      <trkpt lat="64.08764" lon="-19.70947">
        <ele>240.61</ele>
        <time>2015-07-08T17:59:56Z</time>
      </trkpt>
      <trkpt lat="64.08809" lon="-19.71483">
        <ele>240.55</ele>
        <time>2015-07-08T18:00:12Z</time>
      </trkpt>
      <trkpt lat="64.08875" lon="-19.72188">
        <ele>237.83</ele>
        <time>2015-07-08T18:00:34Z</time>
      </trkpt>
      <trkpt lat="64.08911" lon="-19.72474">
        <ele>234.47</ele>
        <time>2015-07-08T18:00:43Z</time>
      </trkpt>
      <trkpt lat="64.08949" lon="-19.72669">
        <ele>231.26</ele>
        <time>2015-07-08T18:00:50Z</time>
      </trkpt>
      <trkpt lat="64.08961" lon="-19.72735">
        <ele>230.63</ele>
        <time>2015-07-08T18:00:53Z</time>
      </trkpt>
      <trkpt lat="64.08968" lon="-19.72824">
        <ele>231.1</ele>
        <time>2015-07-08T18:00:58Z</time>
      </trkpt>
      <trkpt lat="64.09008" lon="-19.72981">
        <ele>234.41</ele>
        <time>2015-07-08T18:01:07Z</time>
      </trkpt>
      <trkpt lat="64.09097" lon="-19.73305">
        <ele>236.41</ele>
        <time>2015-07-08T18:01:22Z</time>
      </trkpt>
      <trkpt lat="64.09188" lon="-19.73727">
        <ele>235.35</ele>
        <time>2015-07-08T18:01:40Z</time>
      </trkpt>
      <trkpt lat="64.09256" lon="-19.74115">
        <ele>232.89</ele>
        <time>2015-07-08T18:01:57Z</time>
      </trkpt>
      <trkpt lat="64.09257" lon="-19.74157">
        <ele>231.39</ele>
        <time>2015-07-08T18:02:04Z</time>
      </trkpt>
      <trkpt lat="64.09255" lon="-19.74153">
        <ele>230.72</ele>
        <time>2015-07-08T18:02:35Z</time>
      </trkpt>
      <trkpt lat="64.09253" lon="-19.74174">
        <ele>230.67</ele>
        <time>2015-07-08T18:02:38Z</time>
      </trkpt>
      <trkpt lat="64.09253" lon="-19.74368">
        <ele>230.55</ele>
        <time>2015-07-08T18:02:50Z</time>
      </trkpt>
      <trkpt lat="64.09255" lon="-19.74601">
        <ele>229.76</ele>
        <time>2015-07-08T18:03:05Z</time>
      </trkpt>
      <trkpt lat="64.0924" lon="-19.7465">
        <ele>229.9</ele>
        <time>2015-07-08T18:03:16Z</time>
      </trkpt>
      <trkpt lat="64.09239" lon="-19.74646">
        <ele>230.03</ele>
        <time>2015-07-08T18:03:36Z</time>
      </trkpt>
      <trkpt lat="64.09238" lon="-19.74647">
        <ele>229.95</ele>
        <time>2015-07-08T18:03:59Z</time>
      </trkpt>
      <trkpt lat="64.09236" lon="-19.74651">
        <ele>229.94</ele>
        <time>2015-07-08T18:04:02Z</time>
      </trkpt>
      <trkpt lat="64.09229" lon="-19.74684">
        <ele>229.99</ele>
        <time>2015-07-08T18:04:15Z</time>
      </trkpt>
      <trkpt lat="64.09228" lon="-19.74697">
        <ele>230.09</ele>
        <time>2015-07-08T18:04:18Z</time>
      </trkpt>
      <trkpt lat="64.09225" lon="-19.74737">
        <ele>230.95</ele>
        <time>2015-07-08T18:04:32Z</time>
      </trkpt>
      <trkpt lat="64.09224" lon="-19.74738">
        <ele>231.17</ele>
        <time>2015-07-08T18:05:11Z</time>
      </trkpt>
      <trkpt lat="64.09224" lon="-19.74739">
        <ele>230.85</ele>
        <time>2015-07-08T18:05:51Z</time>
      </trkpt>
      <trkpt lat="64.09223" lon="-19.74738">
        <ele>231.36</ele>
        <time>2015-07-08T18:06:39Z</time>
      </trkpt>
      <trkpt lat="64.09224" lon="-19.7474">
        <ele>230.92</ele>
        <time>2015-07-08T18:06:58Z</time>
      </trkpt>
      <trkpt lat="64.09226" lon="-19.74749">
        <ele>230.83</ele>
        <time>2015-07-08T18:07:01Z</time>
      </trkpt>
      <trkpt lat="64.0925" lon="-19.74754">
        <ele>231.24</ele>
        <time>2015-07-08T18:07:08Z</time>
      </trkpt>
      <trkpt lat="64.09302" lon="-19.74709">
        <ele>234.6</ele>
        <time>2015-07-08T18:07:15Z</time>
      </trkpt>
      <trkpt lat="64.09408" lon="-19.74617">
        <ele>236.75</ele>
        <time>2015-07-08T18:07:28Z</time>
      </trkpt>
      <trkpt lat="64.09541" lon="-19.74502">
        <ele>238.96</ele>
        <time>2015-07-08T18:07:41Z</time>
      </trkpt>
      <trkpt lat="64.09708" lon="-19.74348">
        <ele>240.75</ele>
        <time>2015-07-08T18:07:54Z</time>
      </trkpt>
      <trkpt lat="64.09897" lon="-19.74105">
        <ele>240.2</ele>
        <time>2015-07-08T18:08:09Z</time>
      </trkpt>
      <trkpt lat="64.09964" lon="-19.74005">
        <ele>240.36</ele>
        <time>2015-07-08T18:08:17Z</time>
      </trkpt>
      <trkpt lat="64.1005" lon="-19.73874">
        <ele>240.09</ele>
        <time>2015-07-08T18:08:30Z</time>
      </trkpt>
      <trkpt lat="64.1016" lon="-19.7371">
        <ele>241.25</ele>
        <time>2015-07-08T18:08:44Z</time>
      </trkpt>
      <trkpt lat="64.10258" lon="-19.73566">
        <ele>244.71</ele>
        <time>2015-07-08T18:08:56Z</time>
      </trkpt>
      <trkpt lat="64.10359" lon="-19.73413">
        <ele>242.96</ele>
        <time>2015-07-08T18:09:10Z</time>
      </trkpt>
      <trkpt lat="64.10445" lon="-19.73285">
        <ele>243.12</ele>
        <time>2015-07-08T18:09:21Z</time>
      </trkpt>
      <trkpt lat="64.10537" lon="-19.73147">
        <ele>243.02</ele>
        <time>2015-07-08T18:09:34Z</time>
      </trkpt>
      <trkpt lat="64.10656" lon="-19.7297">
        <ele>243.83</ele>
        <time>2015-07-08T18:09:47Z</time>
      </trkpt>
      <trkpt lat="64.10831" lon="-19.72709">
        <ele>244.37</ele>
        <time>2015-07-08T18:10:05Z</time>
      </trkpt>
      <trkpt lat="64.11027" lon="-19.72412">
        <ele>245.14</ele>
        <time>2015-07-08T18:10:24Z</time>
      </trkpt>
      <trkpt lat="64.11201" lon="-19.72154">
        <ele>245.85</ele>
        <time>2015-07-08T18:10:41Z</time>
      </trkpt>
      <trkpt lat="64.11369" lon="-19.71907">
        <ele>247.55</ele>
        <time>2015-07-08T18:10:58Z</time>
      </trkpt>
      <trkpt lat="64.11526" lon="-19.71673">
        <ele>248.29</ele>
        <time>2015-07-08T18:11:13Z</time>
      </trkpt>
      <trkpt lat="64.11666" lon="-19.71463">
        <ele>250.46</ele>
        <time>2015-07-08T18:11:27Z</time>
      </trkpt>
      <trkpt lat="64.11788" lon="-19.71283">
        <ele>250.32</ele>
        <time>2015-07-08T18:11:41Z</time>
      </trkpt>
      <trkpt lat="64.11902" lon="-19.71083">
        <ele>250.09</ele>
        <time>2015-07-08T18:11:53Z</time>
      </trkpt>
      <trkpt lat="64.11957" lon="-19.7085">
        <ele>250.11</ele>
        <time>2015-07-08T18:12:02Z</time>
      </trkpt>
      <trkpt lat="64.12055" lon="-19.70299">
        <ele>252.02</ele>
        <time>2015-07-08T18:12:22Z</time>
      </trkpt>
      <trkpt lat="64.12142" lon="-19.69819">
        <ele>253.01</ele>
        <time>2015-07-08T18:12:39Z</time>
      </trkpt>
      <trkpt lat="64.12258" lon="-19.6918">
        <ele>254.71</ele>
        <time>2015-07-08T18:12:59Z</time>
      </trkpt>
      <trkpt lat="64.12396" lon="-19.6843">
        <ele>255.95</ele>
        <time>2015-07-08T18:13:22Z</time>
      </trkpt>
      <trkpt lat="64.12507" lon="-19.67821">
        <ele>256.6</ele>
        <time>2015-07-08T18:13:42Z</time>
      </trkpt>
      <trkpt lat="64.12546" lon="-19.67607">
        <ele>256.33</ele>
        <time>2015-07-08T18:13:52Z</time>
      </trkpt>
      <trkpt lat="64.12606" lon="-19.67279">
        <ele>255.96</ele>
        <time>2015-07-08T18:14:11Z</time>
      </trkpt>
      <trkpt lat="64.12642" lon="-19.67079">
        <ele>259.12</ele>
        <time>2015-07-08T18:14:23Z</time>
      </trkpt>
      <trkpt lat="64.12682" lon="-19.66855">
        <ele>260.73</ele>
        <time>2015-07-08T18:14:38Z</time>
      </trkpt>
      <trkpt lat="64.12733" lon="-19.66563">
        <ele>259.93</ele>
        <time>2015-07-08T18:14:54Z</time>
      </trkpt>
      <trkpt lat="64.12802" lon="-19.66175">
        <ele>260.59</ele>
        <time>2015-07-08T18:15:13Z</time>
      </trkpt>
      <trkpt lat="64.12875" lon="-19.65771">
        <ele>261.18</ele>
        <time>2015-07-08T18:15:33Z</time>
      </trkpt>
      <trkpt lat="64.12949" lon="-19.65362">
        <ele>261.9</ele>
        <time>2015-07-08T18:15:51Z</time>
      </trkpt>
      <trkpt lat="64.13035" lon="-19.64896">
        <ele>262.6</ele>
        <time>2015-07-08T18:16:10Z</time>
      </trkpt>
      <trkpt lat="64.13118" lon="-19.64436">
        <ele>263.27</ele>
        <time>2015-07-08T18:16:29Z</time>
      </trkpt>
      <trkpt lat="64.13187" lon="-19.64054">
        <ele>263.58</ele>
        <time>2015-07-08T18:16:45Z</time>
      </trkpt>
      <trkpt lat="64.13263" lon="-19.63634">
        <ele>264.15</ele>
        <time>2015-07-08T18:17:01Z</time>
      </trkpt>
      <trkpt lat="64.13362" lon="-19.63089">
        <ele>266.06</ele>
        <time>2015-07-08T18:17:20Z</time>
      </trkpt>
      <trkpt lat="64.13439" lon="-19.62672">
        <ele>265.85</ele>
        <time>2015-07-08T18:17:38Z</time>
      </trkpt>
      <trkpt lat="64.13527" lon="-19.62186">
        <ele>265.57</ele>
        <time>2015-07-08T18:17:59Z</time>
      </trkpt>
      <trkpt lat="64.13623" lon="-19.61657">
        <ele>267.2</ele>
        <time>2015-07-08T18:18:20Z</time>
      </trkpt>
      <trkpt lat="64.13729" lon="-19.61078">
        <ele>267.83</ele>
        <time>2015-07-08T18:18:42Z</time>
      </trkpt>
      <trkpt lat="64.13819" lon="-19.60588">
        <ele>268.24</ele>
        <time>2015-07-08T18:19:01Z</time>
      </trkpt>
      <trkpt lat="64.13837" lon="-19.60486">
        <ele>271.7</ele>
        <time>2015-07-08T18:19:05Z</time>
      </trkpt>
      <trkpt lat="64.13851" lon="-19.60408">
        <ele>273.05</ele>
        <time>2015-07-08T18:19:08Z</time>
      </trkpt>
      <trkpt lat="64.1388" lon="-19.60253">
        <ele>269.89</ele>
        <time>2015-07-08T18:19:14Z</time>
      </trkpt>
      <trkpt lat="64.13988" lon="-19.59656">
        <ele>269.46</ele>
        <time>2015-07-08T18:19:37Z</time>
      </trkpt>
      <trkpt lat="64.14081" lon="-19.59142">
        <ele>270.08</ele>
        <time>2015-07-08T18:19:58Z</time>
      </trkpt>
      <trkpt lat="64.14168" lon="-19.58657">
        <ele>270.11</ele>
        <time>2015-07-08T18:20:17Z</time>
      </trkpt>
      <trkpt lat="64.14252" lon="-19.58193">
        <ele>270.57</ele>
        <time>2015-07-08T18:20:35Z</time>
      </trkpt>
      <trkpt lat="64.14355" lon="-19.57623">
        <ele>271.56</ele>
        <time>2015-07-08T18:20:55Z</time>
      </trkpt>
      <trkpt lat="64.14471" lon="-19.56987">
        <ele>272.77</ele>
        <time>2015-07-08T18:21:17Z</time>
      </trkpt>
      <trkpt lat="64.14555" lon="-19.56524">
        <ele>273.52</ele>
        <time>2015-07-08T18:21:34Z</time>
      </trkpt>
      <trkpt lat="64.14658" lon="-19.5596">
        <ele>274.37</ele>
        <time>2015-07-08T18:21:55Z</time>
      </trkpt>
      <trkpt lat="64.14765" lon="-19.55365">
        <ele>275.19</ele>
        <time>2015-07-08T18:22:17Z</time>
      </trkpt>
      <trkpt lat="64.14873" lon="-19.54771">
        <ele>276.44</ele>
        <time>2015-07-08T18:22:37Z</time>
      </trkpt>
      <trkpt lat="64.15" lon="-19.5407">
        <ele>278.15</ele>
        <time>2015-07-08T18:22:59Z</time>
      </trkpt>
      <trkpt lat="64.15118" lon="-19.53417">
        <ele>281.02</ele>
        <time>2015-07-08T18:23:19Z</time>
      </trkpt>
      <trkpt lat="64.15157" lon="-19.53202">
        <ele>284.64</ele>
        <time>2015-07-08T18:23:26Z</time>
      </trkpt>
      <trkpt lat="64.15189" lon="-19.53026">
        <ele>287.93</ele>
        <time>2015-07-08T18:23:32Z</time>
      </trkpt>
      <trkpt lat="64.15267" lon="-19.526">
        <ele>290.08</ele>
        <time>2015-07-08T18:23:48Z</time>
      </trkpt>
      <trkpt lat="64.15333" lon="-19.52414">
        <ele>290.55</ele>
        <time>2015-07-08T18:23:58Z</time>
      </trkpt>
      <trkpt lat="64.15431" lon="-19.52294">
        <ele>291.46</ele>
        <time>2015-07-08T18:24:08Z</time>
      </trkpt>
      <trkpt lat="64.15466" lon="-19.5227">
        <ele>291.23</ele>
        <time>2015-07-08T18:24:15Z</time>
      </trkpt>
      <trkpt lat="64.15468" lon="-19.52261">
        <ele>291.14</ele>
        <time>2015-07-08T18:24:17Z</time>
      </trkpt>
      <trkpt lat="64.1546" lon="-19.52149">
        <ele>291.68</ele>
        <time>2015-07-08T18:24:24Z</time>
      </trkpt>
      <trkpt lat="64.15437" lon="-19.51874">
        <ele>293.28</ele>
        <time>2015-07-08T18:24:33Z</time>
      </trkpt>
      <trkpt lat="64.15427" lon="-19.51481">
        <ele>294.57</ele>
        <time>2015-07-08T18:24:43Z</time>
      </trkpt>
      <trkpt lat="64.15457" lon="-19.50978">
        <ele>296.13</ele>
        <time>2015-07-08T18:24:54Z</time>
      </trkpt>
      <trkpt lat="64.15554" lon="-19.50006">
        <ele>299.16</ele>
        <time>2015-07-08T18:25:14Z</time>
      </trkpt>
      <trkpt lat="64.15653" lon="-19.49029">
        <ele>302.33</ele>
        <time>2015-07-08T18:25:34Z</time>
      </trkpt>
      <trkpt lat="64.15725" lon="-19.48309">
        <ele>305.37</ele>
        <time>2015-07-08T18:25:49Z</time>
      </trkpt>
      <trkpt lat="64.15843" lon="-19.47312">
        <ele>306.19</ele>
        <time>2015-07-08T18:26:10Z</time>
      </trkpt>
      <trkpt lat="64.15955" lon="-19.46891">
        <ele>308</ele>
        <time>2015-07-08T18:26:20Z</time>
      </trkpt>
      <trkpt lat="64.16111" lon="-19.46544">
        <ele>309.18</ele>
        <time>2015-07-08T18:26:30Z</time>
      </trkpt>
      <trkpt lat="64.16329" lon="-19.46223">
        <ele>312.2</ele>
        <time>2015-07-08T18:26:42Z</time>
      </trkpt>
      <trkpt lat="64.16477" lon="-19.46016">
        <ele>315.27</ele>
        <time>2015-07-08T18:26:50Z</time>
      </trkpt>
      <trkpt lat="64.16733" lon="-19.45653">
        <ele>318.28</ele>
        <time>2015-07-08T18:27:04Z</time>
      </trkpt>
      <trkpt lat="64.17093" lon="-19.45138">
        <ele>320.14</ele>
        <time>2015-07-08T18:27:24Z</time>
      </trkpt>
      <trkpt lat="64.17432" lon="-19.44651">
        <ele>319.19</ele>
        <time>2015-07-08T18:27:44Z</time>
      </trkpt>
      <trkpt lat="64.17602" lon="-19.44407">
        <ele>316.18</ele>
        <time>2015-07-08T18:27:54Z</time>
      </trkpt>
      <trkpt lat="64.17712" lon="-19.44255">
        <ele>312.84</ele>
        <time>2015-07-08T18:28:01Z</time>
      </trkpt>
      <trkpt lat="64.17741" lon="-19.44212">
        <ele>311.83</ele>
        <time>2015-07-08T18:28:03Z</time>
      </trkpt>
      <trkpt lat="64.17901" lon="-19.43924">
        <ele>309.32</ele>
        <time>2015-07-08T18:28:14Z</time>
      </trkpt>
      <trkpt lat="64.18026" lon="-19.43575">
        <ele>309.47</ele>
        <time>2015-07-08T18:28:24Z</time>
      </trkpt>
      <trkpt lat="64.18113" lon="-19.43173">
        <ele>310.32</ele>
        <time>2015-07-08T18:28:34Z</time>
      </trkpt>
      <trkpt lat="64.18206" lon="-19.4253">
        <ele>309.94</ele>
        <time>2015-07-08T18:28:49Z</time>
      </trkpt>
      <trkpt lat="64.183" lon="-19.41859">
        <ele>311.4</ele>
        <time>2015-07-08T18:29:04Z</time>
      </trkpt>
      <trkpt lat="64.18418" lon="-19.41031">
        <ele>312.87</ele>
        <time>2015-07-08T18:29:22Z</time>
      </trkpt>
      <trkpt lat="64.18526" lon="-19.40277">
        <ele>315.98</ele>
        <time>2015-07-08T18:29:38Z</time>
      </trkpt>
      <trkpt lat="64.18577" lon="-19.39911">
        <ele>319.39</ele>
        <time>2015-07-08T18:29:46Z</time>
      </trkpt>
      <trkpt lat="64.18615" lon="-19.39646">
        <ele>322.89</ele>
        <time>2015-07-08T18:29:52Z</time>
      </trkpt>
      <trkpt lat="64.18647" lon="-19.39425">
        <ele>325.58</ele>
        <time>2015-07-08T18:29:57Z</time>
      </trkpt>
      <trkpt lat="64.18724" lon="-19.38876">
        <ele>328.65</ele>
        <time>2015-07-08T18:30:09Z</time>
      </trkpt>
      <trkpt lat="64.18856" lon="-19.37934">
        <ele>331.13</ele>
        <time>2015-07-08T18:30:30Z</time>
      </trkpt>
      <trkpt lat="64.18924" lon="-19.37187">
        <ele>333.99</ele>
        <time>2015-07-08T18:30:47Z</time>
      </trkpt>
      <trkpt lat="64.18989" lon="-19.36085">
        <ele>336.06</ele>
        <time>2015-07-08T18:31:11Z</time>
      </trkpt>
      <trkpt lat="64.19058" lon="-19.3493">
        <ele>338.34</ele>
        <time>2015-07-08T18:31:36Z</time>
      </trkpt>
      <trkpt lat="64.19094" lon="-19.34308">
        <ele>343.44</ele>
        <time>2015-07-08T18:31:49Z</time>
      </trkpt>
      <trkpt lat="64.191" lon="-19.34215">
        <ele>347.49</ele>
        <time>2015-07-08T18:31:51Z</time>
      </trkpt>
      <trkpt lat="64.19106" lon="-19.34121">
        <ele>348.49</ele>
        <time>2015-07-08T18:31:53Z</time>
      </trkpt>
      <trkpt lat="64.19111" lon="-19.34028">
        <ele>345.47</ele>
        <time>2015-07-08T18:31:55Z</time>
      </trkpt>
      <trkpt lat="64.19119" lon="-19.3389">
        <ele>342.4</ele>
        <time>2015-07-08T18:31:58Z</time>
      </trkpt>
      <trkpt lat="64.19183" lon="-19.32923">
        <ele>343.82</ele>
        <time>2015-07-08T18:32:19Z</time>
      </trkpt>
      <trkpt lat="64.19258" lon="-19.32477">
        <ele>346.03</ele>
        <time>2015-07-08T18:32:29Z</time>
      </trkpt>
      <trkpt lat="64.19448" lon="-19.31714">
        <ele>347.52</ele>
        <time>2015-07-08T18:32:47Z</time>
      </trkpt>
      <trkpt lat="64.19571" lon="-19.31108">
        <ele>348.16</ele>
        <time>2015-07-08T18:33:01Z</time>
      </trkpt>
      <trkpt lat="64.19649" lon="-19.30464">
        <ele>345.73</ele>
        <time>2015-07-08T18:33:15Z</time>
      </trkpt>
      <trkpt lat="64.19679" lon="-19.29958">
        <ele>349.09</ele>
        <time>2015-07-08T18:33:26Z</time>
      </trkpt>
      <trkpt lat="64.19694" lon="-19.29686">
        <ele>352.59</ele>
        <time>2015-07-08T18:33:32Z</time>
      </trkpt>
      <trkpt lat="64.19705" lon="-19.29462">
        <ele>355.74</ele>
        <time>2015-07-08T18:33:37Z</time>
      </trkpt>
      <trkpt lat="64.19719" lon="-19.29219">
        <ele>358.88</ele>
        <time>2015-07-08T18:33:43Z</time>
      </trkpt>
      <trkpt lat="64.19735" lon="-19.28918">
        <ele>361.9</ele>
        <time>2015-07-08T18:33:52Z</time>
      </trkpt>
      <trkpt lat="64.19749" lon="-19.28631">
        <ele>363.07</ele>
        <time>2015-07-08T18:34:03Z</time>
      </trkpt>
      <trkpt lat="64.19729" lon="-19.28545">
        <ele>362.96</ele>
        <time>2015-07-08T18:34:12Z</time>
      </trkpt>
      <trkpt lat="64.19722" lon="-19.28424">
        <ele>363.43</ele>
        <time>2015-07-08T18:34:26Z</time>
      </trkpt>
      <trkpt lat="64.19713" lon="-19.28417">
        <ele>363.39</ele>
        <time>2015-07-08T18:34:37Z</time>
      </trkpt>
      <trkpt lat="64.19712" lon="-19.28421">
        <ele>363.76</ele>
        <time>2015-07-08T18:34:54Z</time>
      </trkpt>
    </trkseg>
  </trk>
</gpx>